UPS223 KMCO-LOWW
Flight info
| Callsign | UPS223 |
|---|---|
| Flight time | 9h 40m |
| Altitude | 31000 |
| Route | MZULO3 LENDS COACH EAAGL HAAYY AZEZU KN57E LACKS JOBOC 4160N 4250N 4340N 4330N 4320N MUDOS ROXER NOLSA MARIO SINDO PIVUS DIBER NETUP STP RAPED PIGOS EKSID NOSTA LUKIM MALUG ARALD ABTAN |
| Aircraft | MD11/H-SDE1E2E3FGHIJ2J3J4J5M1RWXY/LB1D1 |
Departure
| Time | 2026-04-25 11:42 |
|---|---|
| Airport | Orlando International Airport (KMCO) |
Arrival
| Time | 2026-04-25 21:23 |
|---|---|
| Airport | Vienna International Airport (LOWW) |
| Time | Latitude | Longitude | Altitude | Speed | Heading |
|---|---|---|---|---|---|
| 2026-04-25 11:03 | 28.43734 | -81.33026 | 105 ft | 0 kts | 270° |
| 2026-04-25 11:16 | 28.43734 | -81.33018 | 105 ft | 2 kts | 270° |
| 2026-04-25 11:16 | 28.43733 | -81.33001 | 105 ft | 2 kts | 269° |
| 2026-04-25 11:17 | 28.43736 | -81.32984 | 105 ft | 2 kts | 243° |
| 2026-04-25 11:17 | 28.43744 | -81.32969 | 104 ft | 2 kts | 229° |
| 2026-04-25 11:17 | 28.43755 | -81.32957 | 104 ft | 2 kts | 216° |
| 2026-04-25 11:17 | 28.43767 | -81.32948 | 105 ft | 2 kts | 203° |
| 2026-04-25 11:18 | 28.43782 | -81.32942 | 103 ft | 2 kts | 189° |
| 2026-04-25 11:18 | 28.43794 | -81.32941 | 105 ft | 0 kts | 179° |
| 2026-04-25 11:20 | 28.43792 | -81.32941 | 105 ft | 1 kts | 179° |
| 2026-04-25 11:20 | 28.43777 | -81.32941 | 104 ft | 3 kts | 179° |
| 2026-04-25 11:21 | 28.43746 | -81.32939 | 105 ft | 5 kts | 176° |
| 2026-04-25 11:21 | 28.43702 | -81.32937 | 105 ft | 7 kts | 178° |
| 2026-04-25 11:21 | 28.43645 | -81.32937 | 104 ft | 9 kts | 185° |
| 2026-04-25 11:21 | 28.43580 | -81.32949 | 106 ft | 10 kts | 180° |
| 2026-04-25 11:22 | 28.43503 | -81.32944 | 106 ft | 12 kts | 174° |
| 2026-04-25 11:22 | 28.43446 | -81.32937 | 106 ft | 13 kts | 174° |
| 2026-04-25 11:22 | 28.43318 | -81.32923 | 106 ft | 15 kts | 177° |
| 2026-04-25 11:22 | 28.43208 | -81.32921 | 106 ft | 16 kts | 180° |
| 2026-04-25 11:23 | 28.43089 | -81.32923 | 106 ft | 18 kts | 181° |
| 2026-04-25 11:23 | 28.42960 | -81.32925 | 106 ft | 19 kts | 180° |
| 2026-04-25 11:23 | 28.42835 | -81.32923 | 105 ft | 17 kts | 179° |
| 2026-04-25 11:23 | 28.42729 | -81.32921 | 105 ft | 14 kts | 179° |
| 2026-04-25 11:24 | 28.42656 | -81.32897 | 105 ft | 9 kts | 129° |
| 2026-04-25 11:24 | 28.42648 | -81.32847 | 106 ft | 5 kts | 88° |
| 2026-04-25 11:24 | 28.42650 | -81.32821 | 106 ft | 2 kts | 86° |
| 2026-04-25 11:24 | 28.42650 | -81.32807 | 106 ft | 1 kts | 86° |
| 2026-04-25 11:25 | 28.42651 | -81.32795 | 106 ft | 4 kts | 87° |
| 2026-04-25 11:25 | 28.42653 | -81.32742 | 105 ft | 10 kts | 88° |
| 2026-04-25 11:25 | 28.42633 | -81.32640 | 106 ft | 16 kts | 114° |
| 2026-04-25 11:25 | 28.42572 | -81.32515 | 106 ft | 20 kts | 119° |
| 2026-04-25 11:26 | 28.42497 | -81.32361 | 109 ft | 25 kts | 119° |
| 2026-04-25 11:26 | 28.42415 | -81.32203 | 111 ft | 21 kts | 120° |
| 2026-04-25 11:26 | 28.42347 | -81.32069 | 110 ft | 19 kts | 120° |
| 2026-04-25 11:26 | 28.42290 | -81.31957 | 108 ft | 14 kts | 120° |
| 2026-04-25 11:27 | 28.42273 | -81.31854 | 107 ft | 11 kts | 85° |
| 2026-04-25 11:27 | 28.42274 | -81.31839 | 107 ft | 1 kts | 84° |
| 2026-04-25 11:27 | 28.42275 | -81.31817 | 107 ft | 5 kts | 89° |
| 2026-04-25 11:27 | 28.42275 | -81.31777 | 106 ft | 10 kts | 90° |
| 2026-04-25 11:28 | 28.42312 | -81.31675 | 106 ft | 10 kts | 28° |
| 2026-04-25 11:28 | 28.42347 | -81.31618 | 105 ft | 10 kts | 82° |
| 2026-04-25 11:28 | 28.42349 | -81.31532 | 104 ft | 11 kts | 90° |
| 2026-04-25 11:28 | 28.42350 | -81.31449 | 103 ft | 10 kts | 89° |
| 2026-04-25 11:29 | 28.42351 | -81.31377 | 102 ft | 8 kts | 89° |
| 2026-04-25 11:29 | 28.42351 | -81.31339 | 102 ft | 0 kts | 90° |
| 2026-04-25 11:30 | 28.42351 | -81.31351 | 102 ft | 1 kts | 90° |
| 2026-04-25 11:31 | 28.42351 | -81.31367 | 102 ft | 0 kts | 90° |
| 2026-04-25 11:33 | 28.42351 | -81.31363 | 102 ft | 2 kts | 90° |
| 2026-04-25 11:33 | 28.42351 | -81.31329 | 102 ft | 7 kts | 91° |
| 2026-04-25 11:33 | 28.42346 | -81.31247 | 103 ft | 13 kts | 95° |
| 2026-04-25 11:33 | 28.42331 | -81.31122 | 103 ft | 19 kts | 98° |
| 2026-04-25 11:34 | 28.42316 | -81.30965 | 104 ft | 20 kts | 88° |
| 2026-04-25 11:34 | 28.42325 | -81.30820 | 102 ft | 17 kts | 85° |
| 2026-04-25 11:34 | 28.42335 | -81.30696 | 104 ft | 15 kts | 84° |
| 2026-04-25 11:34 | 28.42344 | -81.30579 | 103 ft | 16 kts | 85° |
| 2026-04-25 11:35 | 28.42354 | -81.30448 | 102 ft | 17 kts | 86° |
| 2026-04-25 11:35 | 28.42359 | -81.30312 | 103 ft | 17 kts | 87° |
| 2026-04-25 11:35 | 28.42363 | -81.30173 | 102 ft | 18 kts | 89° |
| 2026-04-25 11:35 | 28.42364 | -81.30031 | 102 ft | 18 kts | 89° |
| 2026-04-25 11:36 | 28.42367 | -81.29886 | 102 ft | 19 kts | 88° |
| 2026-04-25 11:36 | 28.42372 | -81.29763 | 103 ft | 14 kts | 87° |
| 2026-04-25 11:36 | 28.42434 | -81.29702 | 105 ft | 13 kts | 3° |
| 2026-04-25 11:36 | 28.42524 | -81.29703 | 104 ft | 13 kts | 359° |
| 2026-04-25 11:37 | 28.42619 | -81.29703 | 103 ft | 14 kts | 360° |
| 2026-04-25 11:37 | 28.42720 | -81.29702 | 103 ft | 15 kts | 0° |
| 2026-04-25 11:37 | 28.42824 | -81.29704 | 103 ft | 15 kts | 358° |
| 2026-04-25 11:37 | 28.42935 | -81.29707 | 105 ft | 15 kts | 359° |
| 2026-04-25 11:38 | 28.43033 | -81.29708 | 103 ft | 13 kts | 359° |
| 2026-04-25 11:38 | 28.43112 | -81.29711 | 105 ft | 10 kts | 358° |
| 2026-04-25 11:38 | 28.43172 | -81.29713 | 103 ft | 7 kts | 359° |
| 2026-04-25 11:38 | 28.43221 | -81.29713 | 103 ft | 7 kts | 359° |
| 2026-04-25 11:39 | 28.43279 | -81.29714 | 103 ft | 9 kts | 359° |
| 2026-04-25 11:39 | 28.43295 | -81.29714 | 105 ft | 0 kts | 359° |
| 2026-04-25 11:39 | 28.43296 | -81.29714 | 103 ft | 1 kts | 359° |
| 2026-04-25 11:40 | 28.43318 | -81.29714 | 103 ft | 5 kts | 1° |
| 2026-04-25 11:40 | 28.43367 | -81.29713 | 105 ft | 7 kts | 1° |
| 2026-04-25 11:40 | 28.43417 | -81.29711 | 103 ft | 7 kts | 11° |
| 2026-04-25 11:40 | 28.43439 | -81.29673 | 103 ft | 6 kts | 77° |
| 2026-04-25 11:41 | 28.43445 | -81.29625 | 106 ft | 6 kts | 86° |
| 2026-04-25 11:41 | 28.43426 | -81.29594 | 105 ft | 4 kts | 154° |
| 2026-04-25 11:41 | 28.43390 | -81.29587 | 104 ft | 7 kts | 172° |
| 2026-04-25 11:41 | 28.43183 | -81.29582 | 105 ft | 65 kts | 179° |
| 2026-04-25 11:42 | 28.42479 | -81.29576 | 103 ft | 136 kts | 179° |
| 2026-04-25 11:42 | 28.41332 | -81.29565 | 104 ft | 190 kts | 180° |
| 2026-04-25 11:42 | 28.39953 | -81.29547 | 509 ft | 197 kts | 179° |
| 2026-04-25 11:42 | 28.38577 | -81.29514 | 1266 ft | 200 kts | 177° |
| 2026-04-25 11:43 | 28.37199 | -81.29200 | 1897 ft | 206 kts | 156° |
| 2026-04-25 11:43 | 28.35976 | -81.28343 | 2570 ft | 208 kts | 144° |
| 2026-04-25 11:43 | 28.34888 | -81.27263 | 3238 ft | 214 kts | 128° |
| 2026-04-25 11:43 | 28.34297 | -81.25667 | 3608 ft | 229 kts | 97° |
| 2026-04-25 11:44 | 28.34529 | -81.23861 | 4007 ft | 238 kts | 68° |
| 2026-04-25 11:44 | 28.35338 | -81.22237 | 4603 ft | 235 kts | 58° |
| 2026-04-25 11:44 | 28.36210 | -81.20693 | 5228 ft | 232 kts | 57° |
| 2026-04-25 11:44 | 28.37063 | -81.19126 | 5665 ft | 236 kts | 59° |
| 2026-04-25 11:45 | 28.37874 | -81.17483 | 6077 ft | 240 kts | 62° |
| 2026-04-25 11:45 | 28.38593 | -81.15773 | 6548 ft | 241 kts | 66° |
| 2026-04-25 11:45 | 28.39214 | -81.13998 | 6932 ft | 244 kts | 68° |
| 2026-04-25 11:45 | 28.39815 | -81.12176 | 7264 ft | 248 kts | 68° |
| 2026-04-25 11:46 | 28.40398 | -81.10314 | 7553 ft | 254 kts | 70° |
| 2026-04-25 11:46 | 28.40953 | -81.08361 | 7666 ft | 265 kts | 71° |
| 2026-04-25 11:46 | 28.41506 | -81.06322 | 7797 ft | 276 kts | 72° |
| 2026-04-25 11:46 | 28.42047 | -81.04187 | 7917 ft | 289 kts | 73° |
| 2026-04-25 11:47 | 28.42600 | -81.01949 | 8269 ft | 298 kts | 72° |
| 2026-04-25 11:47 | 28.43195 | -80.99697 | 8933 ft | 297 kts | 71° |
| 2026-04-25 11:47 | 28.43822 | -80.97468 | 9587 ft | 298 kts | 70° |
| 2026-04-25 11:47 | 28.44455 | -80.95195 | 10150 ft | 304 kts | 72° |
| 2026-04-25 11:48 | 28.44861 | -80.93641 | 10307 ft | 316 kts | 72° |
| 2026-04-25 11:48 | 28.45484 | -80.91172 | 10451 ft | 335 kts | 72° |
| 2026-04-25 11:48 | 28.46140 | -80.88553 | 10576 ft | 354 kts | 72° |
| 2026-04-25 11:48 | 28.46835 | -80.85790 | 10776 ft | 370 kts | 72° |
| 2026-04-25 11:49 | 28.47721 | -80.82016 | 11487 ft | 377 kts | 77° |
| 2026-04-25 11:49 | 28.48040 | -80.80028 | 11858 ft | 380 kts | 80° |
| 2026-04-25 11:49 | 28.48410 | -80.77038 | 12378 ft | 385 kts | 82° |
| 2026-04-25 11:49 | 28.48837 | -80.73009 | 13055 ft | 390 kts | 82° |
| 2026-04-25 11:50 | 28.49052 | -80.70934 | 13406 ft | 392 kts | 82° |
| 2026-04-25 11:50 | 28.49375 | -80.67838 | 13904 ft | 396 kts | 82° |
| 2026-04-25 11:50 | 28.49706 | -80.64718 | 14384 ft | 399 kts | 82° |
| 2026-04-25 11:50 | 28.50045 | -80.61573 | 14841 ft | 402 kts | 81° |
| 2026-04-25 11:51 | 28.50390 | -80.58408 | 15297 ft | 405 kts | 81° |
| 2026-04-25 11:51 | 28.50732 | -80.55259 | 15720 ft | 408 kts | 81° |
| 2026-04-25 11:51 | 28.51083 | -80.52044 | 16160 ft | 411 kts | 81° |
| 2026-04-25 11:51 | 28.51436 | -80.48805 | 16573 ft | 414 kts | 81° |
| 2026-04-25 11:52 | 28.51791 | -80.45551 | 16969 ft | 417 kts | 81° |
| 2026-04-25 11:52 | 28.52147 | -80.42269 | 17356 ft | 419 kts | 81° |
| 2026-04-25 11:52 | 28.52503 | -80.38969 | 17733 ft | 422 kts | 81° |
| 2026-04-25 11:52 | 28.52862 | -80.35648 | 18100 ft | 425 kts | 81° |
| 2026-04-25 11:53 | 28.53223 | -80.32305 | 18477 ft | 427 kts | 80° |
| 2026-04-25 11:53 | 28.53818 | -80.28999 | 18799 ft | 426 kts | 71° |
| 2026-04-25 11:53 | 28.54796 | -80.25822 | 19133 ft | 427 kts | 65° |
| 2026-04-25 11:53 | 28.55955 | -80.22706 | 19447 ft | 429 kts | 63° |
| 2026-04-25 11:54 | 28.57175 | -80.19601 | 19775 ft | 431 kts | 63° |
| 2026-04-25 11:54 | 28.58404 | -80.16482 | 20092 ft | 433 kts | 63° |
| 2026-04-25 11:54 | 28.60835 | -80.10179 | 20737 ft | 437 kts | 64° |
| 2026-04-25 11:55 | 28.62040 | -80.06995 | 21044 ft | 439 kts | 64° |
| 2026-04-25 11:55 | 28.63244 | -80.03791 | 21371 ft | 441 kts | 64° |
| 2026-04-25 11:55 | 28.64451 | -80.00567 | 21676 ft | 444 kts | 64° |
| 2026-04-25 11:55 | 28.65661 | -79.97324 | 22002 ft | 446 kts | 64° |
| 2026-04-25 11:56 | 28.66879 | -79.94062 | 22301 ft | 449 kts | 64° |
| 2026-04-25 11:56 | 28.68101 | -79.90788 | 22611 ft | 451 kts | 65° |
| 2026-04-25 11:56 | 28.69327 | -79.87495 | 22916 ft | 453 kts | 65° |
| 2026-04-25 11:56 | 28.70559 | -79.84189 | 23235 ft | 455 kts | 65° |
| 2026-04-25 11:57 | 28.71795 | -79.80868 | 23534 ft | 457 kts | 65° |
| 2026-04-25 11:57 | 28.73040 | -79.77521 | 23850 ft | 459 kts | 65° |
| 2026-04-25 11:57 | 28.74286 | -79.74174 | 24161 ft | 461 kts | 65° |
| 2026-04-25 11:57 | 28.75543 | -79.70788 | 24476 ft | 464 kts | 65° |
| 2026-04-25 11:58 | 28.76799 | -79.67401 | 24809 ft | 465 kts | 65° |
| 2026-04-25 11:58 | 28.78059 | -79.63998 | 25139 ft | 467 kts | 65° |
| 2026-04-25 11:58 | 28.79327 | -79.60576 | 25439 ft | 469 kts | 65° |
| 2026-04-25 11:58 | 28.80742 | -79.57226 | 25714 ft | 469 kts | 58° |
| 2026-04-25 11:59 | 28.82461 | -79.54060 | 26009 ft | 470 kts | 53° |
| 2026-04-25 11:59 | 28.84335 | -79.51009 | 26296 ft | 471 kts | 52° |
| 2026-04-25 11:59 | 28.86273 | -79.47991 | 26585 ft | 473 kts | 51° |
| 2026-04-25 12:00 | 28.90175 | -79.41914 | 27162 ft | 476 kts | 52° |
| 2026-04-25 12:00 | 28.92117 | -79.38840 | 27422 ft | 478 kts | 52° |
| 2026-04-25 12:00 | 28.95990 | -79.32630 | 27980 ft | 482 kts | 52° |
| 2026-04-25 12:01 | 28.97929 | -79.29502 | 28231 ft | 483 kts | 52° |
| 2026-04-25 12:01 | 28.99849 | -79.26401 | 28475 ft | 485 kts | 52° |
| 2026-04-25 12:01 | 29.01799 | -79.23249 | 28732 ft | 487 kts | 52° |
| 2026-04-25 12:01 | 29.03755 | -79.20085 | 28984 ft | 488 kts | 53° |
| 2026-04-25 12:02 | 29.07687 | -79.13722 | 29472 ft | 491 kts | 53° |
| 2026-04-25 12:02 | 29.09661 | -79.10526 | 29701 ft | 493 kts | 53° |
| 2026-04-25 12:02 | 29.11641 | -79.07319 | 29907 ft | 494 kts | 53° |
| 2026-04-25 12:03 | 29.13625 | -79.04101 | 30089 ft | 496 kts | 53° |
| 2026-04-25 12:03 | 29.15613 | -79.00874 | 30276 ft | 497 kts | 53° |
| 2026-04-25 12:03 | 29.17606 | -78.97638 | 30452 ft | 498 kts | 53° |
| 2026-04-25 12:03 | 29.19601 | -78.94393 | 30642 ft | 498 kts | 53° |
| 2026-04-25 12:04 | 29.21591 | -78.91154 | 30881 ft | 497 kts | 53° |
| 2026-04-25 12:04 | 29.23580 | -78.87913 | 30956 ft | 498 kts | 53° |
| 2026-04-25 12:04 | 29.27566 | -78.81411 | 30973 ft | 500 kts | 53° |
| 2026-04-25 12:05 | 29.31558 | -78.74867 | 30981 ft | 501 kts | 53° |
| 2026-04-25 12:05 | 29.36074 | -78.68833 | 30982 ft | 498 kts | 39° |
| 2026-04-25 12:06 | 29.41871 | -78.64573 | 30974 ft | 495 kts | 21° |
| 2026-04-25 12:06 | 29.48414 | -78.62155 | 30974 ft | 495 kts | 13° |
| 2026-04-25 12:07 | 29.55056 | -78.60023 | 30974 ft | 497 kts | 15° |
| 2026-04-25 12:07 | 29.61650 | -78.57600 | 30973 ft | 498 kts | 17° |
| 2026-04-25 12:08 | 29.68222 | -78.55021 | 30982 ft | 499 kts | 17° |
| 2026-04-25 12:08 | 29.74797 | -78.52415 | 30983 ft | 500 kts | 17° |
| 2026-04-25 12:09 | 29.81384 | -78.49814 | 30983 ft | 501 kts | 17° |
| 2026-04-25 12:09 | 29.87978 | -78.47213 | 30983 ft | 501 kts | 17° |
| 2026-04-25 12:10 | 29.94574 | -78.44606 | 30983 ft | 501 kts | 17° |
| 2026-04-25 12:10 | 30.01173 | -78.41995 | 30982 ft | 501 kts | 17° |
| 2026-04-25 12:11 | 30.07729 | -78.39399 | 30974 ft | 501 kts | 17° |
| 2026-04-25 12:11 | 30.14326 | -78.36781 | 30972 ft | 501 kts | 17° |
| 2026-04-25 12:12 | 30.19858 | -78.34584 | 30965 ft | 502 kts | 18° |
| 2026-04-25 12:12 | 30.27523 | -78.31524 | 30965 ft | 501 kts | 18° |
| 2026-04-25 12:13 | 30.34119 | -78.28888 | 30964 ft | 501 kts | 18° |
| 2026-04-25 12:13 | 30.40715 | -78.26257 | 30964 ft | 502 kts | 18° |
| 2026-04-25 12:14 | 30.47308 | -78.23623 | 30973 ft | 501 kts | 18° |
| 2026-04-25 12:14 | 30.53901 | -78.20984 | 30973 ft | 501 kts | 18° |
| 2026-04-25 12:15 | 30.60490 | -78.18346 | 30974 ft | 501 kts | 18° |
| 2026-04-25 12:15 | 30.67076 | -78.15703 | 30982 ft | 501 kts | 18° |
| 2026-04-25 12:16 | 30.73658 | -78.13058 | 30985 ft | 501 kts | 18° |
| 2026-04-25 12:16 | 30.80239 | -78.10408 | 30991 ft | 500 kts | 18° |
| 2026-04-25 12:17 | 30.86815 | -78.07757 | 30992 ft | 500 kts | 18° |
| 2026-04-25 12:17 | 30.93390 | -78.05110 | 30992 ft | 500 kts | 18° |
| 2026-04-25 12:18 | 30.99962 | -78.02451 | 30992 ft | 500 kts | 18° |
| 2026-04-25 12:18 | 31.06530 | -77.99780 | 30983 ft | 500 kts | 18° |
| 2026-04-25 12:19 | 31.15961 | -77.94618 | 30983 ft | 502 kts | 31° |
| 2026-04-25 12:20 | 31.21844 | -77.90211 | 30982 ft | 503 kts | 32° |
| 2026-04-25 12:20 | 31.27728 | -77.85800 | 30975 ft | 503 kts | 32° |
| 2026-04-25 12:21 | 31.33651 | -77.81461 | 30974 ft | 502 kts | 31° |
| 2026-04-25 12:21 | 31.39588 | -77.77146 | 30973 ft | 502 kts | 31° |
| 2026-04-25 12:22 | 31.45477 | -77.72860 | 30973 ft | 502 kts | 31° |
| 2026-04-25 12:22 | 31.51408 | -77.68535 | 30962 ft | 502 kts | 31° |
| 2026-04-25 12:23 | 31.57332 | -77.64205 | 30944 ft | 502 kts | 31° |
| 2026-04-25 12:23 | 31.63250 | -77.59874 | 30941 ft | 501 kts | 31° |
| 2026-04-25 12:24 | 31.69168 | -77.55535 | 30943 ft | 501 kts | 31° |
| 2026-04-25 12:24 | 31.75083 | -77.51191 | 30946 ft | 501 kts | 31° |
| 2026-04-25 12:25 | 31.80999 | -77.46842 | 30938 ft | 501 kts | 31° |
| 2026-04-25 12:25 | 31.86907 | -77.42471 | 30941 ft | 502 kts | 31° |
| 2026-04-25 12:26 | 31.92815 | -77.38100 | 30947 ft | 502 kts | 31° |
| 2026-04-25 12:26 | 31.98727 | -77.33734 | 30946 ft | 502 kts | 31° |
| 2026-04-25 12:27 | 32.04638 | -77.29362 | 30939 ft | 501 kts | 32° |
| 2026-04-25 12:27 | 32.10541 | -77.24985 | 30941 ft | 501 kts | 32° |
| 2026-04-25 12:28 | 32.16440 | -77.20604 | 30931 ft | 501 kts | 31° |
| 2026-04-25 12:28 | 32.22336 | -77.16232 | 30934 ft | 501 kts | 31° |
| 2026-04-25 12:29 | 32.28260 | -77.11902 | 30938 ft | 501 kts | 31° |
| 2026-04-25 12:29 | 32.34193 | -77.07584 | 30943 ft | 501 kts | 31° |
| 2026-04-25 12:30 | 32.40123 | -77.03268 | 30947 ft | 500 kts | 31° |
| 2026-04-25 12:30 | 32.46053 | -76.98940 | 30939 ft | 501 kts | 31° |
| 2026-04-25 12:31 | 32.51978 | -76.94606 | 30947 ft | 500 kts | 31° |
| 2026-04-25 12:31 | 32.57901 | -76.90267 | 30942 ft | 501 kts | 31° |
| 2026-04-25 12:32 | 32.63824 | -76.85921 | 30947 ft | 500 kts | 31° |
| 2026-04-25 12:32 | 32.69740 | -76.81573 | 30940 ft | 500 kts | 31° |
| 2026-04-25 12:33 | 32.75658 | -76.77216 | 30943 ft | 500 kts | 31° |
| 2026-04-25 12:33 | 32.81573 | -76.72856 | 30947 ft | 500 kts | 31° |
| 2026-04-25 12:34 | 32.87483 | -76.68493 | 30937 ft | 500 kts | 31° |
| 2026-04-25 12:34 | 32.93353 | -76.64149 | 30940 ft | 500 kts | 31° |
| 2026-04-25 12:35 | 32.99250 | -76.59762 | 30932 ft | 500 kts | 31° |
| 2026-04-25 12:35 | 33.05147 | -76.55379 | 30931 ft | 500 kts | 31° |
| 2026-04-25 12:36 | 33.11043 | -76.50996 | 30928 ft | 499 kts | 31° |
| 2026-04-25 12:36 | 33.16930 | -76.46614 | 30926 ft | 499 kts | 31° |
| 2026-04-25 12:37 | 33.22812 | -76.42230 | 30925 ft | 498 kts | 31° |
| 2026-04-25 12:37 | 33.27740 | -76.38551 | 30927 ft | 498 kts | 31° |
| 2026-04-25 12:38 | 33.33614 | -76.34161 | 30927 ft | 498 kts | 31° |
| 2026-04-25 12:38 | 33.39488 | -76.29762 | 30931 ft | 498 kts | 31° |
| 2026-04-25 12:39 | 33.45312 | -76.25393 | 30931 ft | 497 kts | 31° |
| 2026-04-25 12:39 | 33.51168 | -76.20993 | 30928 ft | 497 kts | 31° |
| 2026-04-25 12:40 | 33.57025 | -76.16586 | 30926 ft | 497 kts | 31° |
| 2026-04-25 12:40 | 33.62874 | -76.12175 | 30924 ft | 497 kts | 32° |
| 2026-04-25 12:41 | 33.68714 | -76.07748 | 30926 ft | 496 kts | 31° |
| 2026-04-25 12:41 | 33.74547 | -76.03325 | 30925 ft | 495 kts | 32° |
| 2026-04-25 12:42 | 33.80381 | -75.98903 | 30924 ft | 496 kts | 31° |
| 2026-04-25 12:42 | 33.86215 | -75.94474 | 30927 ft | 496 kts | 32° |
| 2026-04-25 12:43 | 33.92045 | -75.90045 | 30925 ft | 496 kts | 32° |
| 2026-04-25 12:43 | 34.00792 | -75.83387 | 30926 ft | 495 kts | 32° |
| 2026-04-25 12:44 | 34.06618 | -75.78943 | 30923 ft | 496 kts | 32° |
| 2026-04-25 12:45 | 34.15353 | -75.72260 | 30925 ft | 496 kts | 32° |
| 2026-04-25 12:45 | 34.24054 | -75.65589 | 30926 ft | 496 kts | 32° |
| 2026-04-25 12:46 | 34.29637 | -75.61306 | 30923 ft | 495 kts | 31° |
| 2026-04-25 12:46 | 34.35447 | -75.56827 | 30919 ft | 495 kts | 32° |
| 2026-04-25 12:47 | 34.41255 | -75.52329 | 30914 ft | 495 kts | 31° |
| 2026-04-25 12:47 | 34.47062 | -75.47838 | 30916 ft | 495 kts | 31° |
| 2026-04-25 12:48 | 34.52872 | -75.43346 | 30915 ft | 495 kts | 31° |
| 2026-04-25 12:48 | 34.58677 | -75.38850 | 30914 ft | 495 kts | 31° |
| 2026-04-25 12:49 | 34.64479 | -75.34348 | 30915 ft | 495 kts | 31° |
| 2026-04-25 12:49 | 34.70275 | -75.29841 | 30914 ft | 494 kts | 31° |
| 2026-04-25 12:50 | 34.76067 | -75.25327 | 30915 ft | 494 kts | 31° |
| 2026-04-25 12:50 | 34.81809 | -75.20849 | 30917 ft | 493 kts | 31° |
| 2026-04-25 12:51 | 34.87592 | -75.16339 | 30915 ft | 492 kts | 31° |
| 2026-04-25 12:51 | 34.93357 | -75.11844 | 30915 ft | 493 kts | 30° |
| 2026-04-25 12:52 | 34.99129 | -75.07319 | 30915 ft | 493 kts | 31° |
| 2026-04-25 12:52 | 35.04895 | -75.02786 | 30915 ft | 493 kts | 31° |
| 2026-04-25 12:53 | 35.10666 | -74.98229 | 30918 ft | 494 kts | 31° |
| 2026-04-25 12:53 | 35.16441 | -74.93674 | 30914 ft | 494 kts | 31° |
| 2026-04-25 12:54 | 35.22206 | -74.89109 | 30916 ft | 494 kts | 31° |
| 2026-04-25 12:54 | 35.27974 | -74.84545 | 30917 ft | 494 kts | 31° |
| 2026-04-25 12:55 | 35.32767 | -74.80749 | 30916 ft | 494 kts | 31° |
| 2026-04-25 12:55 | 35.39502 | -74.75408 | 30915 ft | 493 kts | 30° |
| 2026-04-25 12:56 | 35.45263 | -74.70831 | 30915 ft | 493 kts | 30° |
| 2026-04-25 12:56 | 35.50892 | -74.65992 | 30914 ft | 494 kts | 34° |
| 2026-04-25 12:57 | 35.56366 | -74.60866 | 30915 ft | 495 kts | 34° |
| 2026-04-25 12:57 | 35.61831 | -74.55714 | 30916 ft | 495 kts | 34° |
| 2026-04-25 12:58 | 35.67300 | -74.50587 | 30907 ft | 495 kts | 34° |
| 2026-04-25 12:58 | 35.72740 | -74.45499 | 30905 ft | 494 kts | 34° |
| 2026-04-25 12:59 | 35.78213 | -74.40371 | 30907 ft | 494 kts | 34° |
| 2026-04-25 12:59 | 35.83683 | -74.35237 | 30907 ft | 494 kts | 34° |
| 2026-04-25 13:00 | 35.88267 | -74.30930 | 30907 ft | 494 kts | 34° |
| 2026-04-25 13:00 | 35.94620 | -74.24946 | 30909 ft | 494 kts | 34° |
| 2026-04-25 13:01 | 36.00084 | -74.19790 | 30914 ft | 494 kts | 34° |
| 2026-04-25 13:01 | 36.05541 | -74.14629 | 30913 ft | 494 kts | 34° |
| 2026-04-25 13:02 | 36.10998 | -74.09459 | 30907 ft | 494 kts | 34° |
| 2026-04-25 13:02 | 36.16447 | -74.04274 | 30906 ft | 494 kts | 34° |
| 2026-04-25 13:03 | 36.21893 | -73.99073 | 30913 ft | 494 kts | 34° |
| 2026-04-25 13:03 | 36.27341 | -73.93879 | 30914 ft | 494 kts | 34° |
| 2026-04-25 13:04 | 36.32792 | -73.88679 | 30915 ft | 494 kts | 34° |
| 2026-04-25 13:04 | 36.38238 | -73.83474 | 30916 ft | 494 kts | 34° |
| 2026-04-25 13:05 | 36.43684 | -73.78262 | 30916 ft | 494 kts | 34° |
| 2026-04-25 13:05 | 36.49129 | -73.73038 | 30943 ft | 494 kts | 33° |
| 2026-04-25 13:06 | 36.54571 | -73.67807 | 30940 ft | 495 kts | 33° |
| 2026-04-25 13:06 | 36.60008 | -73.62570 | 30938 ft | 494 kts | 33° |
| 2026-04-25 13:07 | 36.65441 | -73.57330 | 30952 ft | 494 kts | 33° |
| 2026-04-25 13:07 | 36.70881 | -73.52076 | 30960 ft | 494 kts | 33° |
| 2026-04-25 13:08 | 36.76310 | -73.46819 | 30962 ft | 494 kts | 33° |
| 2026-04-25 13:08 | 36.81731 | -73.41548 | 30962 ft | 494 kts | 33° |
| 2026-04-25 13:09 | 36.87141 | -73.36266 | 30962 ft | 494 kts | 33° |
| 2026-04-25 13:09 | 36.92561 | -73.30980 | 30967 ft | 494 kts | 33° |
| 2026-04-25 13:10 | 36.97978 | -73.25692 | 30971 ft | 494 kts | 33° |
| 2026-04-25 13:10 | 37.03396 | -73.20400 | 30971 ft | 494 kts | 32° |
| 2026-04-25 13:11 | 37.08807 | -73.15105 | 30971 ft | 494 kts | 32° |
| 2026-04-25 13:11 | 37.14214 | -73.09803 | 30972 ft | 494 kts | 32° |
| 2026-04-25 13:12 | 37.19624 | -73.04487 | 30980 ft | 494 kts | 32° |
| 2026-04-25 13:12 | 37.24117 | -73.00065 | 30980 ft | 494 kts | 32° |
| 2026-04-25 13:13 | 37.30434 | -72.93836 | 30980 ft | 494 kts | 32° |
| 2026-04-25 13:13 | 37.35831 | -72.88504 | 30984 ft | 493 kts | 32° |
| 2026-04-25 13:14 | 37.41223 | -72.83164 | 30989 ft | 493 kts | 32° |
| 2026-04-25 13:14 | 37.46611 | -72.77811 | 30989 ft | 493 kts | 32° |
| 2026-04-25 13:15 | 37.51947 | -72.72480 | 30988 ft | 493 kts | 32° |
| 2026-04-25 13:15 | 37.57321 | -72.67116 | 30989 ft | 492 kts | 32° |
| 2026-04-25 13:16 | 37.62694 | -72.61756 | 30997 ft | 493 kts | 31° |
| 2026-04-25 13:16 | 37.68063 | -72.56394 | 30998 ft | 492 kts | 31° |
| 2026-04-25 13:17 | 37.73426 | -72.51025 | 30999 ft | 492 kts | 31° |
| 2026-04-25 13:17 | 37.78784 | -72.45649 | 31008 ft | 492 kts | 31° |
| 2026-04-25 13:18 | 37.84140 | -72.40264 | 31030 ft | 492 kts | 31° |
| 2026-04-25 13:18 | 37.89490 | -72.34874 | 31036 ft | 492 kts | 31° |
| 2026-04-25 13:19 | 37.94590 | -72.29015 | 31036 ft | 500 kts | 39° |
| 2026-04-25 13:19 | 37.97684 | -72.24660 | 31036 ft | 503 kts | 41° |
| 2026-04-25 13:20 | 38.03802 | -72.15671 | 31046 ft | 503 kts | 41° |
| 2026-04-25 13:20 | 38.08411 | -72.09003 | 31049 ft | 502 kts | 41° |
| 2026-04-25 13:21 | 38.13040 | -72.02358 | 31074 ft | 502 kts | 41° |
| 2026-04-25 13:21 | 38.17673 | -71.95707 | 31078 ft | 502 kts | 41° |
| 2026-04-25 13:22 | 38.22300 | -71.89045 | 31085 ft | 503 kts | 40° |
| 2026-04-25 13:23 | 38.29187 | -71.79103 | 31083 ft | 501 kts | 40° |
| 2026-04-25 13:23 | 38.33791 | -71.72435 | 31084 ft | 501 kts | 40° |
| 2026-04-25 13:24 | 38.38380 | -71.65774 | 31086 ft | 500 kts | 40° |
| 2026-04-25 13:24 | 38.42969 | -71.59109 | 31085 ft | 500 kts | 40° |
| 2026-04-25 13:25 | 38.47538 | -71.52442 | 31090 ft | 499 kts | 40° |
| 2026-04-25 13:25 | 38.52085 | -71.45752 | 31096 ft | 499 kts | 40° |
| 2026-04-25 13:26 | 38.55865 | -71.40198 | 31093 ft | 497 kts | 40° |
| 2026-04-25 13:26 | 38.60405 | -71.33536 | 31088 ft | 497 kts | 40° |
| 2026-04-25 13:27 | 38.64936 | -71.26886 | 31098 ft | 495 kts | 39° |
| 2026-04-25 13:27 | 38.69455 | -71.20233 | 31101 ft | 495 kts | 39° |
| 2026-04-25 13:28 | 38.73962 | -71.13586 | 31102 ft | 494 kts | 39° |
| 2026-04-25 13:28 | 38.78459 | -71.06939 | 31103 ft | 493 kts | 39° |
| 2026-04-25 13:29 | 38.82944 | -71.00295 | 31107 ft | 492 kts | 39° |
| 2026-04-25 13:29 | 38.87417 | -70.93659 | 31110 ft | 491 kts | 39° |
| 2026-04-25 13:30 | 38.94110 | -70.83698 | 31110 ft | 491 kts | 39° |
| 2026-04-25 13:31 | 39.00788 | -70.73726 | 31110 ft | 490 kts | 39° |
| 2026-04-25 13:31 | 39.05209 | -70.67066 | 31117 ft | 489 kts | 39° |
| 2026-04-25 13:32 | 39.09625 | -70.60407 | 31118 ft | 489 kts | 38° |
| 2026-04-25 13:32 | 39.14045 | -70.53753 | 31118 ft | 488 kts | 38° |
| 2026-04-25 13:33 | 39.18457 | -70.47110 | 31120 ft | 488 kts | 38° |
| 2026-04-25 13:33 | 39.22869 | -70.40454 | 31127 ft | 488 kts | 38° |
| 2026-04-25 13:34 | 39.27268 | -70.33798 | 31129 ft | 487 kts | 38° |
| 2026-04-25 13:34 | 39.31650 | -70.27150 | 31125 ft | 486 kts | 38° |
| 2026-04-25 13:35 | 39.36020 | -70.20513 | 31128 ft | 485 kts | 38° |
| 2026-04-25 13:35 | 39.40390 | -70.13861 | 31131 ft | 485 kts | 37° |
| 2026-04-25 13:36 | 39.44736 | -70.07230 | 31126 ft | 483 kts | 37° |
| 2026-04-25 13:36 | 39.49062 | -70.00580 | 31132 ft | 485 kts | 39° |
| 2026-04-25 13:36 | 39.51041 | -69.96989 | 31138 ft | 497 kts | 46° |
| 2026-04-25 13:37 | 39.52674 | -69.93041 | 31133 ft | 511 kts | 53° |
| 2026-04-25 13:37 | 39.53998 | -69.88713 | 31130 ft | 522 kts | 58° |
| 2026-04-25 13:37 | 39.55145 | -69.84232 | 31131 ft | 525 kts | 60° |
| 2026-04-25 13:38 | 39.57390 | -69.75236 | 31129 ft | 524 kts | 59° |
| 2026-04-25 13:38 | 39.59790 | -69.66350 | 31128 ft | 521 kts | 58° |
| 2026-04-25 13:39 | 39.62274 | -69.57530 | 31128 ft | 521 kts | 57° |
| 2026-04-25 13:39 | 39.64761 | -69.48714 | 31127 ft | 521 kts | 58° |
| 2026-04-25 13:40 | 39.67243 | -69.39883 | 31127 ft | 522 kts | 58° |
| 2026-04-25 13:40 | 39.69716 | -69.31011 | 31129 ft | 523 kts | 58° |
| 2026-04-25 13:41 | 39.72174 | -69.22147 | 31130 ft | 521 kts | 58° |
| 2026-04-25 13:41 | 39.74628 | -69.13290 | 31127 ft | 521 kts | 58° |
| 2026-04-25 13:42 | 39.77076 | -69.04419 | 31126 ft | 521 kts | 58° |
| 2026-04-25 13:42 | 39.79520 | -68.95548 | 31120 ft | 522 kts | 58° |
| 2026-04-25 13:43 | 39.81930 | -68.86639 | 31118 ft | 522 kts | 59° |
| 2026-04-25 13:43 | 39.84343 | -68.77724 | 31120 ft | 522 kts | 58° |
| 2026-04-25 13:44 | 39.86761 | -68.68818 | 31119 ft | 522 kts | 59° |
| 2026-04-25 13:44 | 39.89179 | -68.59908 | 31119 ft | 521 kts | 58° |
| 2026-04-25 13:45 | 39.91592 | -68.50979 | 31120 ft | 522 kts | 59° |
| 2026-04-25 13:45 | 39.93992 | -68.42070 | 31119 ft | 522 kts | 59° |
| 2026-04-25 13:46 | 39.96391 | -68.33134 | 31117 ft | 522 kts | 59° |
| 2026-04-25 13:46 | 39.98760 | -68.24265 | 31109 ft | 521 kts | 59° |
| 2026-04-25 13:47 | 40.00767 | -68.15088 | 31110 ft | 536 kts | 68° |
| 2026-04-25 13:47 | 40.01802 | -68.05363 | 31110 ft | 544 kts | 73° |
| 2026-04-25 13:48 | 40.02635 | -67.95554 | 31109 ft | 544 kts | 72° |
| 2026-04-25 13:48 | 40.03545 | -67.85770 | 31110 ft | 543 kts | 72° |
| 2026-04-25 13:49 | 40.04513 | -67.76017 | 31108 ft | 542 kts | 72° |
| 2026-04-25 13:49 | 40.05479 | -67.66248 | 31105 ft | 543 kts | 72° |
| 2026-04-25 13:50 | 40.06424 | -67.56489 | 31100 ft | 541 kts | 72° |
| 2026-04-25 13:50 | 40.07360 | -67.46744 | 31102 ft | 541 kts | 73° |
| 2026-04-25 13:51 | 40.08290 | -67.37001 | 31099 ft | 540 kts | 73° |
| 2026-04-25 13:51 | 40.09206 | -67.27268 | 31262 ft | 539 kts | 73° |
| 2026-04-25 13:51 | 40.09662 | -67.22419 | 31480 ft | 539 kts | 73° |
| 2026-04-25 13:52 | 40.10113 | -67.17566 | 31703 ft | 537 kts | 74° |
| 2026-04-25 13:52 | 40.10561 | -67.12730 | 31895 ft | 536 kts | 74° |
| 2026-04-25 13:52 | 40.11004 | -67.07898 | 32078 ft | 535 kts | 73° |
| 2026-04-25 13:52 | 40.11553 | -67.03116 | 32238 ft | 531 kts | 71° |
| 2026-04-25 13:53 | 40.12228 | -66.98385 | 32392 ft | 529 kts | 70° |
| 2026-04-25 13:53 | 40.12971 | -66.93688 | 32556 ft | 527 kts | 69° |
| 2026-04-25 13:53 | 40.13736 | -66.89012 | 32705 ft | 526 kts | 69° |
| 2026-04-25 13:53 | 40.14501 | -66.84333 | 32874 ft | 526 kts | 69° |
| 2026-04-25 13:54 | 40.15252 | -66.79676 | 33043 ft | 524 kts | 70° |
| 2026-04-25 13:54 | 40.16724 | -66.70356 | 33088 ft | 524 kts | 70° |
| 2026-04-25 13:55 | 40.18175 | -66.61021 | 33091 ft | 525 kts | 70° |
| 2026-04-25 13:55 | 40.19617 | -66.51655 | 33090 ft | 525 kts | 71° |
| 2026-04-25 13:56 | 40.21055 | -66.42286 | 33091 ft | 526 kts | 71° |
| 2026-04-25 13:56 | 40.22489 | -66.32902 | 33091 ft | 526 kts | 71° |
| 2026-04-25 13:57 | 40.23916 | -66.23506 | 33090 ft | 527 kts | 71° |
| 2026-04-25 13:57 | 40.25326 | -66.14161 | 33082 ft | 527 kts | 71° |
| 2026-04-25 13:58 | 40.26740 | -66.04736 | 33080 ft | 528 kts | 71° |
| 2026-04-25 13:58 | 40.28131 | -65.95295 | 33033 ft | 528 kts | 72° |
| 2026-04-25 13:59 | 40.29499 | -65.85844 | 33028 ft | 528 kts | 72° |
| 2026-04-25 13:59 | 40.30879 | -65.76404 | 33027 ft | 527 kts | 72° |
| 2026-04-25 14:00 | 40.32263 | -65.66972 | 33027 ft | 527 kts | 72° |
| 2026-04-25 14:00 | 40.33639 | -65.57547 | 33025 ft | 527 kts | 72° |
| 2026-04-25 14:01 | 40.35002 | -65.48124 | 33025 ft | 526 kts | 72° |
| 2026-04-25 14:01 | 40.36357 | -65.38708 | 33027 ft | 525 kts | 72° |
| 2026-04-25 14:02 | 40.37702 | -65.29304 | 33028 ft | 524 kts | 73° |
| 2026-04-25 14:02 | 40.39037 | -65.19911 | 33025 ft | 524 kts | 73° |
| 2026-04-25 14:03 | 40.40363 | -65.10520 | 33029 ft | 523 kts | 73° |
| 2026-04-25 14:03 | 40.41679 | -65.01142 | 33036 ft | 523 kts | 74° |
| 2026-04-25 14:04 | 40.42986 | -64.91747 | 33031 ft | 523 kts | 74° |
| 2026-04-25 14:04 | 40.44257 | -64.82343 | 33008 ft | 524 kts | 74° |
| 2026-04-25 14:05 | 40.45535 | -64.72934 | 32999 ft | 524 kts | 75° |
| 2026-04-25 14:05 | 40.46819 | -64.63528 | 32983 ft | 524 kts | 75° |
| 2026-04-25 14:06 | 40.48105 | -64.54103 | 32975 ft | 524 kts | 75° |
| 2026-04-25 14:06 | 40.49382 | -64.44669 | 32979 ft | 525 kts | 75° |
| 2026-04-25 14:07 | 40.50650 | -64.35230 | 32979 ft | 525 kts | 75° |
| 2026-04-25 14:07 | 40.51913 | -64.25769 | 32979 ft | 526 kts | 75° |
| 2026-04-25 14:08 | 40.53170 | -64.16296 | 32978 ft | 527 kts | 75° |
| 2026-04-25 14:08 | 40.54421 | -64.06804 | 32979 ft | 527 kts | 76° |
| 2026-04-25 14:09 | 40.55656 | -63.97370 | 32978 ft | 527 kts | 76° |
| 2026-04-25 14:09 | 40.56889 | -63.87880 | 32978 ft | 526 kts | 76° |
| 2026-04-25 14:10 | 40.58089 | -63.78381 | 32981 ft | 526 kts | 76° |
| 2026-04-25 14:10 | 40.59280 | -63.68890 | 32985 ft | 526 kts | 76° |
| 2026-04-25 14:11 | 40.60479 | -63.59406 | 32980 ft | 525 kts | 76° |
| 2026-04-25 14:11 | 40.61678 | -63.49946 | 32981 ft | 524 kts | 77° |
| 2026-04-25 14:12 | 40.62867 | -63.40496 | 32938 ft | 523 kts | 77° |
| 2026-04-25 14:12 | 40.64047 | -63.31055 | 32905 ft | 522 kts | 77° |
| 2026-04-25 14:13 | 40.65218 | -63.21621 | 32866 ft | 522 kts | 77° |
| 2026-04-25 14:13 | 40.66377 | -63.12205 | 32842 ft | 521 kts | 77° |
| 2026-04-25 14:14 | 40.67334 | -63.04377 | 32842 ft | 520 kts | 77° |
| 2026-04-25 14:14 | 40.68477 | -62.94965 | 32846 ft | 520 kts | 78° |
| 2026-04-25 14:15 | 40.69613 | -62.85547 | 32832 ft | 520 kts | 78° |
| 2026-04-25 14:15 | 40.70736 | -62.76134 | 32831 ft | 520 kts | 78° |
| 2026-04-25 14:16 | 40.71824 | -62.66704 | 32831 ft | 520 kts | 78° |
| 2026-04-25 14:16 | 40.72919 | -62.57266 | 32832 ft | 521 kts | 78° |
| 2026-04-25 14:17 | 40.74024 | -62.47824 | 32832 ft | 521 kts | 78° |
| 2026-04-25 14:17 | 40.75125 | -62.38377 | 32831 ft | 521 kts | 78° |
| 2026-04-25 14:18 | 40.76217 | -62.28928 | 32831 ft | 521 kts | 78° |
| 2026-04-25 14:18 | 40.77302 | -62.19469 | 32839 ft | 522 kts | 78° |
| 2026-04-25 14:19 | 40.78381 | -62.10004 | 32841 ft | 522 kts | 78° |
| 2026-04-25 14:19 | 40.79450 | -62.00537 | 32839 ft | 522 kts | 79° |
| 2026-04-25 14:20 | 40.80514 | -61.91054 | 32846 ft | 523 kts | 79° |
| 2026-04-25 14:20 | 40.81572 | -61.81558 | 32832 ft | 523 kts | 79° |
| 2026-04-25 14:21 | 40.82618 | -61.72076 | 32834 ft | 522 kts | 79° |
| 2026-04-25 14:21 | 40.83631 | -61.62591 | 32832 ft | 522 kts | 79° |
| 2026-04-25 14:22 | 40.84633 | -61.53106 | 32831 ft | 521 kts | 79° |
| 2026-04-25 14:22 | 40.85647 | -61.43640 | 32832 ft | 520 kts | 80° |
| 2026-04-25 14:23 | 40.86660 | -61.34174 | 32831 ft | 520 kts | 80° |
| 2026-04-25 14:23 | 40.87658 | -61.24770 | 32832 ft | 520 kts | 80° |
| 2026-04-25 14:24 | 40.88654 | -61.15296 | 32831 ft | 520 kts | 80° |
| 2026-04-25 14:24 | 40.89644 | -61.05821 | 32823 ft | 521 kts | 80° |
| 2026-04-25 14:25 | 40.90629 | -60.96341 | 32822 ft | 520 kts | 80° |
| 2026-04-25 14:25 | 40.91602 | -60.86862 | 32826 ft | 520 kts | 80° |
| 2026-04-25 14:26 | 40.92568 | -60.77380 | 32824 ft | 521 kts | 81° |
| 2026-04-25 14:26 | 40.93528 | -60.67883 | 32788 ft | 521 kts | 81° |
| 2026-04-25 14:27 | 40.94473 | -60.58381 | 32786 ft | 521 kts | 81° |
| 2026-04-25 14:27 | 40.95380 | -60.48868 | 32786 ft | 521 kts | 81° |
| 2026-04-25 14:28 | 40.96300 | -60.39354 | 32785 ft | 522 kts | 81° |
| 2026-04-25 14:28 | 40.97227 | -60.29834 | 32785 ft | 522 kts | 81° |
| 2026-04-25 14:29 | 40.98151 | -60.20312 | 32785 ft | 522 kts | 81° |
| 2026-04-25 14:29 | 40.99061 | -60.10786 | 32785 ft | 521 kts | 81° |
| 2026-04-25 14:30 | 40.99980 | -60.01260 | 32785 ft | 521 kts | 80° |
| 2026-04-25 14:30 | 41.01878 | -59.87077 | 32741 ft | 523 kts | 77° |
| 2026-04-25 14:31 | 41.03273 | -59.77692 | 32740 ft | 523 kts | 77° |
| 2026-04-25 14:31 | 41.04653 | -59.68230 | 32735 ft | 523 kts | 77° |
| 2026-04-25 14:32 | 41.06006 | -59.58766 | 32729 ft | 523 kts | 78° |
| 2026-04-25 14:32 | 41.07349 | -59.49293 | 32714 ft | 523 kts | 78° |
| 2026-04-25 14:33 | 41.08693 | -59.39753 | 32730 ft | 523 kts | 78° |
| 2026-04-25 14:33 | 41.10012 | -59.30331 | 32731 ft | 524 kts | 78° |
| 2026-04-25 14:34 | 41.11333 | -59.20829 | 32730 ft | 524 kts | 78° |
| 2026-04-25 14:34 | 41.12649 | -59.11319 | 32721 ft | 524 kts | 78° |
| 2026-04-25 14:35 | 41.13957 | -59.01797 | 32729 ft | 525 kts | 78° |
| 2026-04-25 14:35 | 41.15256 | -58.92259 | 32730 ft | 526 kts | 78° |
| 2026-04-25 14:36 | 41.16518 | -58.82699 | 32718 ft | 526 kts | 78° |
| 2026-04-25 14:36 | 41.17786 | -58.73144 | 32731 ft | 526 kts | 78° |
| 2026-04-25 14:37 | 41.19063 | -58.63589 | 32731 ft | 526 kts | 78° |
| 2026-04-25 14:37 | 41.20336 | -58.54026 | 32729 ft | 526 kts | 78° |
| 2026-04-25 14:38 | 41.21601 | -58.44465 | 32720 ft | 526 kts | 78° |
| 2026-04-25 14:38 | 41.22857 | -58.34896 | 32724 ft | 526 kts | 79° |
| 2026-04-25 14:39 | 41.24106 | -58.25320 | 32715 ft | 526 kts | 79° |
| 2026-04-25 14:39 | 41.25347 | -58.15745 | 32713 ft | 525 kts | 79° |
| 2026-04-25 14:40 | 41.26578 | -58.06179 | 32719 ft | 525 kts | 79° |
| 2026-04-25 14:40 | 41.27799 | -57.96618 | 32718 ft | 525 kts | 79° |
| 2026-04-25 14:41 | 41.29016 | -57.87037 | 32720 ft | 526 kts | 79° |
| 2026-04-25 14:41 | 41.30203 | -57.77415 | 32722 ft | 528 kts | 79° |
| 2026-04-25 14:42 | 41.30988 | -57.70964 | 32727 ft | 529 kts | 79° |
| 2026-04-25 14:42 | 41.32570 | -57.58111 | 32719 ft | 530 kts | 79° |
| 2026-04-25 14:43 | 41.33766 | -57.48429 | 32710 ft | 530 kts | 79° |
| 2026-04-25 14:43 | 41.34954 | -57.38735 | 32716 ft | 531 kts | 79° |
| 2026-04-25 14:44 | 41.36136 | -57.29015 | 32716 ft | 533 kts | 80° |
| 2026-04-25 14:44 | 41.37312 | -57.19276 | 32702 ft | 533 kts | 80° |
| 2026-04-25 14:45 | 41.38480 | -57.09515 | 32706 ft | 535 kts | 80° |
| 2026-04-25 14:45 | 41.39642 | -56.99725 | 32716 ft | 536 kts | 80° |
| 2026-04-25 14:46 | 41.40802 | -56.89914 | 32713 ft | 537 kts | 80° |
| 2026-04-25 14:46 | 41.41956 | -56.80081 | 32700 ft | 538 kts | 80° |
| 2026-04-25 14:47 | 41.42710 | -56.73548 | 32706 ft | 539 kts | 81° |
| 2026-04-25 14:47 | 41.44190 | -56.60321 | 32694 ft | 539 kts | 81° |
| 2026-04-25 14:48 | 41.45301 | -56.50499 | 32706 ft | 539 kts | 81° |
| 2026-04-25 14:48 | 41.46424 | -56.40619 | 32696 ft | 540 kts | 81° |
| 2026-04-25 14:49 | 41.47541 | -56.30719 | 32699 ft | 540 kts | 81° |
| 2026-04-25 14:49 | 41.48646 | -56.20827 | 32700 ft | 540 kts | 81° |
| 2026-04-25 14:50 | 41.49743 | -56.10927 | 32699 ft | 540 kts | 81° |
| 2026-04-25 14:50 | 41.50833 | -56.01015 | 32695 ft | 540 kts | 81° |
| 2026-04-25 14:51 | 41.51913 | -55.91107 | 32686 ft | 541 kts | 81° |
| 2026-04-25 14:51 | 41.52989 | -55.81170 | 32684 ft | 542 kts | 81° |
| 2026-04-25 14:52 | 41.54056 | -55.71211 | 32680 ft | 543 kts | 81° |
| 2026-04-25 14:52 | 41.54763 | -55.64535 | 32677 ft | 543 kts | 82° |
| 2026-04-25 14:53 | 41.56122 | -55.51224 | 32677 ft | 545 kts | 82° |
| 2026-04-25 14:53 | 41.57157 | -55.41201 | 32673 ft | 545 kts | 82° |
| 2026-04-25 14:54 | 41.58199 | -55.31157 | 32674 ft | 547 kts | 82° |
| 2026-04-25 14:54 | 41.59235 | -55.21081 | 32638 ft | 549 kts | 82° |
| 2026-04-25 14:55 | 41.60266 | -55.10970 | 32529 ft | 550 kts | 82° |
| 2026-04-25 14:55 | 41.61288 | -55.00834 | 32515 ft | 551 kts | 82° |
| 2026-04-25 14:56 | 41.62303 | -54.90673 | 32514 ft | 552 kts | 82° |
| 2026-04-25 14:56 | 41.63310 | -54.80483 | 32515 ft | 553 kts | 83° |
| 2026-04-25 14:57 | 41.64312 | -54.70275 | 32515 ft | 554 kts | 83° |
| 2026-04-25 14:57 | 41.65307 | -54.60056 | 32515 ft | 554 kts | 83° |
| 2026-04-25 14:58 | 41.66273 | -54.49833 | 32513 ft | 554 kts | 83° |
| 2026-04-25 14:58 | 41.67214 | -54.39595 | 32516 ft | 554 kts | 83° |
| 2026-04-25 14:59 | 41.68169 | -54.29370 | 32515 ft | 554 kts | 83° |
| 2026-04-25 14:59 | 41.68966 | -54.20880 | 32514 ft | 553 kts | 83° |
| 2026-04-25 15:00 | 41.69915 | -54.10671 | 32514 ft | 553 kts | 83° |
| 2026-04-25 15:00 | 41.70853 | -54.00465 | 32506 ft | 552 kts | 83° |
| 2026-04-25 15:01 | 41.71781 | -53.90262 | 32505 ft | 553 kts | 83° |
| 2026-04-25 15:01 | 41.72701 | -53.80040 | 32508 ft | 553 kts | 83° |
| 2026-04-25 15:02 | 41.73612 | -53.69802 | 32513 ft | 554 kts | 83° |
| 2026-04-25 15:02 | 41.74517 | -53.59554 | 32514 ft | 555 kts | 84° |
| 2026-04-25 15:03 | 41.75413 | -53.49280 | 32514 ft | 556 kts | 84° |
| 2026-04-25 15:03 | 41.76283 | -53.38978 | 32514 ft | 557 kts | 84° |
| 2026-04-25 15:04 | 41.77128 | -53.28697 | 32514 ft | 553 kts | 84° |
| 2026-04-25 15:04 | 41.77982 | -53.18462 | 32516 ft | 553 kts | 84° |
| 2026-04-25 15:05 | 41.78842 | -53.08207 | 32514 ft | 555 kts | 84° |
| 2026-04-25 15:06 | 41.80117 | -52.92761 | 32507 ft | 557 kts | 85° |
| 2026-04-25 15:06 | 41.80952 | -52.82498 | 32444 ft | 558 kts | 85° |
| 2026-04-25 15:07 | 41.81787 | -52.72136 | 32440 ft | 560 kts | 85° |
| 2026-04-25 15:07 | 41.82611 | -52.61769 | 32481 ft | 559 kts | 85° |
| 2026-04-25 15:08 | 41.83425 | -52.51405 | 32547 ft | 559 kts | 85° |
| 2026-04-25 15:08 | 41.84230 | -52.41036 | 32552 ft | 559 kts | 86° |
| 2026-04-25 15:09 | 41.85014 | -52.30660 | 32552 ft | 559 kts | 86° |
| 2026-04-25 15:09 | 41.86138 | -52.15114 | 32552 ft | 558 kts | 86° |
| 2026-04-25 15:10 | 41.86904 | -52.04763 | 32552 ft | 557 kts | 86° |
| 2026-04-25 15:11 | 41.88047 | -51.89241 | 32552 ft | 557 kts | 86° |
| 2026-04-25 15:11 | 41.88793 | -51.78886 | 32552 ft | 558 kts | 86° |
| 2026-04-25 15:12 | 41.89897 | -51.63325 | 32552 ft | 559 kts | 86° |
| 2026-04-25 15:12 | 41.90502 | -51.54689 | 32552 ft | 560 kts | 87° |
| 2026-04-25 15:13 | 41.91699 | -51.37299 | 32552 ft | 561 kts | 87° |
| 2026-04-25 15:14 | 41.92404 | -51.26850 | 32552 ft | 563 kts | 87° |
| 2026-04-25 15:14 | 41.93078 | -51.16371 | 32553 ft | 564 kts | 88° |
| 2026-04-25 15:15 | 41.93732 | -51.05857 | 32552 ft | 565 kts | 88° |
| 2026-04-25 15:15 | 41.94405 | -50.95328 | 32552 ft | 566 kts | 88° |
| 2026-04-25 15:16 | 41.95081 | -50.84775 | 32552 ft | 567 kts | 88° |
| 2026-04-25 15:16 | 41.96077 | -50.68937 | 32553 ft | 568 kts | 88° |
| 2026-04-25 15:17 | 41.97045 | -50.53147 | 32534 ft | 567 kts | 89° |
| 2026-04-25 15:18 | 41.97679 | -50.42582 | 32533 ft | 567 kts | 89° |
| 2026-04-25 15:18 | 41.98611 | -50.26744 | 32543 ft | 567 kts | 89° |
| 2026-04-25 15:19 | 41.99124 | -50.17898 | 32543 ft | 566 kts | 89° |
| 2026-04-25 15:19 | 41.99800 | -50.05654 | 32542 ft | 565 kts | 90° |
| 2026-04-25 15:20 | 42.00663 | -49.95136 | 32542 ft | 568 kts | 83° |
| 2026-04-25 15:20 | 42.02158 | -49.84694 | 32551 ft | 569 kts | 81° |
| 2026-04-25 15:21 | 42.03763 | -49.74272 | 32552 ft | 569 kts | 81° |
| 2026-04-25 15:21 | 42.05297 | -49.63831 | 32552 ft | 569 kts | 82° |
| 2026-04-25 15:22 | 42.06780 | -49.53388 | 32554 ft | 568 kts | 82° |
| 2026-04-25 15:22 | 42.08247 | -49.42940 | 32552 ft | 568 kts | 82° |
| 2026-04-25 15:23 | 42.09708 | -49.32512 | 32553 ft | 567 kts | 82° |
| 2026-04-25 15:23 | 42.11162 | -49.22072 | 32552 ft | 566 kts | 83° |
| 2026-04-25 15:24 | 42.12604 | -49.11650 | 32552 ft | 566 kts | 83° |
| 2026-04-25 15:24 | 42.13795 | -49.02976 | 32552 ft | 567 kts | 83° |
| 2026-04-25 15:25 | 42.15457 | -48.90763 | 32561 ft | 567 kts | 83° |
| 2026-04-25 15:25 | 42.16834 | -48.80312 | 32560 ft | 567 kts | 84° |
| 2026-04-25 15:26 | 42.18219 | -48.69829 | 32561 ft | 569 kts | 84° |
| 2026-04-25 15:26 | 42.19615 | -48.59330 | 32561 ft | 569 kts | 84° |
| 2026-04-25 15:27 | 42.21009 | -48.48821 | 32561 ft | 570 kts | 84° |
| 2026-04-25 15:28 | 42.23089 | -48.33007 | 32575 ft | 571 kts | 84° |
| 2026-04-25 15:28 | 42.24462 | -48.22438 | 32569 ft | 572 kts | 84° |
| 2026-04-25 15:29 | 42.25825 | -48.11852 | 32568 ft | 573 kts | 84° |
| 2026-04-25 15:29 | 42.27183 | -48.01254 | 32572 ft | 573 kts | 85° |
| 2026-04-25 15:30 | 42.28521 | -47.90714 | 32569 ft | 573 kts | 85° |
| 2026-04-25 15:30 | 42.29854 | -47.80109 | 32579 ft | 572 kts | 85° |
| 2026-04-25 15:31 | 42.31143 | -47.69500 | 32582 ft | 573 kts | 85° |
| 2026-04-25 15:31 | 42.32436 | -47.58903 | 32581 ft | 571 kts | 85° |
| 2026-04-25 15:32 | 42.33741 | -47.48298 | 32581 ft | 571 kts | 85° |
| 2026-04-25 15:32 | 42.35035 | -47.37718 | 32589 ft | 570 kts | 85° |
| 2026-04-25 15:33 | 42.36951 | -47.21872 | 32590 ft | 569 kts | 85° |
| 2026-04-25 15:33 | 42.38217 | -47.11317 | 32589 ft | 568 kts | 85° |
| 2026-04-25 15:34 | 42.39468 | -47.00780 | 32598 ft | 567 kts | 85° |
| 2026-04-25 15:34 | 42.40300 | -46.93737 | 32600 ft | 566 kts | 85° |
| 2026-04-25 15:35 | 42.42546 | -46.74474 | 32600 ft | 566 kts | 86° |
| 2026-04-25 15:36 | 42.44322 | -46.58689 | 32607 ft | 565 kts | 86° |
| 2026-04-25 15:36 | 42.45496 | -46.48147 | 32608 ft | 567 kts | 86° |
| 2026-04-25 15:37 | 42.46687 | -46.37605 | 32610 ft | 566 kts | 86° |
| 2026-04-25 15:37 | 42.47874 | -46.27055 | 32619 ft | 567 kts | 86° |
| 2026-04-25 15:38 | 42.49046 | -46.16494 | 32616 ft | 567 kts | 86° |
| 2026-04-25 15:38 | 42.50209 | -46.05927 | 32620 ft | 567 kts | 86° |
| 2026-04-25 15:39 | 42.51364 | -45.95347 | 32625 ft | 567 kts | 86° |
| 2026-04-25 15:39 | 42.52509 | -45.84772 | 32627 ft | 567 kts | 86° |
| 2026-04-25 15:40 | 42.53262 | -45.77767 | 32623 ft | 567 kts | 86° |
| 2026-04-25 15:40 | 42.54768 | -45.63609 | 32635 ft | 567 kts | 86° |
| 2026-04-25 15:41 | 42.55862 | -45.53032 | 32635 ft | 566 kts | 87° |
| 2026-04-25 15:41 | 42.56928 | -45.42462 | 32643 ft | 565 kts | 87° |
| 2026-04-25 15:42 | 42.58004 | -45.31900 | 32636 ft | 566 kts | 87° |
| 2026-04-25 15:42 | 42.59090 | -45.21328 | 32636 ft | 565 kts | 87° |
| 2026-04-25 15:43 | 42.60163 | -45.10770 | 32636 ft | 565 kts | 87° |
| 2026-04-25 15:43 | 42.61226 | -45.00203 | 32646 ft | 565 kts | 88° |
| 2026-04-25 15:44 | 42.62271 | -44.89714 | 32645 ft | 564 kts | 88° |
| 2026-04-25 15:44 | 42.63309 | -44.79161 | 32650 ft | 564 kts | 88° |
| 2026-04-25 15:45 | 42.64348 | -44.68520 | 32654 ft | 565 kts | 88° |
| 2026-04-25 15:45 | 42.65028 | -44.61519 | 32654 ft | 565 kts | 88° |
| 2026-04-25 15:46 | 42.66215 | -44.49155 | 32663 ft | 564 kts | 88° |
| 2026-04-25 15:46 | 42.67189 | -44.38580 | 32665 ft | 564 kts | 88° |
| 2026-04-25 15:47 | 42.68153 | -44.27995 | 32673 ft | 565 kts | 88° |
| 2026-04-25 15:47 | 42.69133 | -44.17392 | 32673 ft | 565 kts | 88° |
| 2026-04-25 15:48 | 42.70110 | -44.06791 | 32677 ft | 565 kts | 88° |
| 2026-04-25 15:48 | 42.71078 | -43.96191 | 32684 ft | 565 kts | 89° |
| 2026-04-25 15:49 | 42.72035 | -43.85575 | 32684 ft | 565 kts | 89° |
| 2026-04-25 15:49 | 42.72981 | -43.74964 | 32687 ft | 565 kts | 89° |
| 2026-04-25 15:50 | 42.73918 | -43.64352 | 32688 ft | 565 kts | 89° |
| 2026-04-25 15:50 | 42.74839 | -43.53806 | 32704 ft | 565 kts | 89° |
| 2026-04-25 15:51 | 42.75608 | -43.44903 | 32697 ft | 565 kts | 89° |
| 2026-04-25 15:51 | 42.76655 | -43.32567 | 32714 ft | 564 kts | 89° |
| 2026-04-25 15:52 | 42.77512 | -43.21960 | 32715 ft | 564 kts | 89° |
| 2026-04-25 15:52 | 42.78380 | -43.11355 | 32722 ft | 564 kts | 89° |
| 2026-04-25 15:53 | 42.79251 | -43.00747 | 32722 ft | 564 kts | 89° |
| 2026-04-25 15:53 | 42.80119 | -42.90142 | 32731 ft | 564 kts | 89° |
| 2026-04-25 15:54 | 42.80977 | -42.79538 | 32731 ft | 563 kts | 89° |
| 2026-04-25 15:54 | 42.81822 | -42.68925 | 32734 ft | 564 kts | 90° |
| 2026-04-25 15:55 | 42.82657 | -42.58305 | 32738 ft | 564 kts | 89° |
| 2026-04-25 15:55 | 42.83485 | -42.47685 | 32743 ft | 564 kts | 89° |
| 2026-04-25 15:56 | 42.84303 | -42.37063 | 32748 ft | 564 kts | 90° |
| 2026-04-25 15:56 | 42.85108 | -42.26422 | 32754 ft | 564 kts | 90° |
| 2026-04-25 15:57 | 42.85883 | -42.15785 | 32757 ft | 564 kts | 90° |
| 2026-04-25 15:57 | 42.86636 | -42.05138 | 32764 ft | 565 kts | 90° |
| 2026-04-25 15:58 | 42.87405 | -41.94483 | 32767 ft | 564 kts | 90° |
| 2026-04-25 15:58 | 42.88173 | -41.83845 | 32769 ft | 564 kts | 90° |
| 2026-04-25 15:59 | 42.88929 | -41.73207 | 32776 ft | 564 kts | 90° |
| 2026-04-25 15:59 | 42.89678 | -41.62573 | 32785 ft | 563 kts | 90° |
| 2026-04-25 16:00 | 42.90169 | -41.55533 | 32788 ft | 563 kts | 90° |
| 2026-04-25 16:00 | 42.91142 | -41.41327 | 32789 ft | 562 kts | 90° |
| 2026-04-25 16:01 | 42.91854 | -41.30784 | 32794 ft | 561 kts | 90° |
| 2026-04-25 16:01 | 42.92559 | -41.20174 | 32801 ft | 561 kts | 90° |
| 2026-04-25 16:02 | 42.93251 | -41.09573 | 32804 ft | 561 kts | 90° |
| 2026-04-25 16:02 | 42.93899 | -40.98959 | 32806 ft | 561 kts | 90° |
| 2026-04-25 16:03 | 42.94549 | -40.88363 | 32813 ft | 560 kts | 90° |
| 2026-04-25 16:03 | 42.95209 | -40.77769 | 32821 ft | 560 kts | 90° |
| 2026-04-25 16:04 | 42.95864 | -40.67179 | 32823 ft | 560 kts | 90° |
| 2026-04-25 16:04 | 42.96510 | -40.56583 | 32831 ft | 560 kts | 90° |
| 2026-04-25 16:05 | 42.97144 | -40.46001 | 32831 ft | 559 kts | 90° |
| 2026-04-25 16:06 | 42.98076 | -40.30133 | 32839 ft | 559 kts | 90° |
| 2026-04-25 16:06 | 42.98683 | -40.19555 | 32842 ft | 558 kts | 90° |
| 2026-04-25 16:07 | 42.99282 | -40.08989 | 32848 ft | 558 kts | 90° |
| 2026-04-25 16:07 | 42.99872 | -39.98424 | 32858 ft | 558 kts | 90° |
| 2026-04-25 16:08 | 43.00418 | -39.87864 | 32858 ft | 557 kts | 90° |
| 2026-04-25 16:08 | 43.00956 | -39.77304 | 32859 ft | 557 kts | 90° |
| 2026-04-25 16:09 | 43.01492 | -39.66748 | 32869 ft | 557 kts | 91° |
| 2026-04-25 16:09 | 43.01935 | -39.56189 | 32870 ft | 556 kts | 91° |
| 2026-04-25 16:10 | 43.02342 | -39.45636 | 32879 ft | 557 kts | 91° |
| 2026-04-25 16:10 | 43.02749 | -39.35066 | 32879 ft | 557 kts | 91° |
| 2026-04-25 16:11 | 43.03156 | -39.24502 | 32887 ft | 556 kts | 91° |
| 2026-04-25 16:11 | 43.03550 | -39.13936 | 32887 ft | 557 kts | 91° |
| 2026-04-25 16:12 | 43.03933 | -39.03371 | 32896 ft | 556 kts | 92° |
| 2026-04-25 16:12 | 43.04305 | -38.92806 | 32894 ft | 556 kts | 92° |
| 2026-04-25 16:13 | 43.04670 | -38.82243 | 32904 ft | 556 kts | 92° |
| 2026-04-25 16:13 | 43.05026 | -38.71674 | 32903 ft | 556 kts | 92° |
| 2026-04-25 16:14 | 43.05369 | -38.61179 | 32906 ft | 556 kts | 92° |
| 2026-04-25 16:14 | 43.05683 | -38.50620 | 32919 ft | 556 kts | 92° |
| 2026-04-25 16:15 | 43.05972 | -38.40061 | 32919 ft | 556 kts | 92° |
| 2026-04-25 16:15 | 43.06276 | -38.29501 | 32922 ft | 556 kts | 92° |
| 2026-04-25 16:16 | 43.06583 | -38.18945 | 32924 ft | 556 kts | 92° |
| 2026-04-25 16:16 | 43.06881 | -38.08385 | 32929 ft | 556 kts | 92° |
| 2026-04-25 16:17 | 43.07167 | -37.97828 | 32934 ft | 555 kts | 92° |
| 2026-04-25 16:17 | 43.07445 | -37.87287 | 32933 ft | 554 kts | 92° |
| 2026-04-25 16:18 | 43.07709 | -37.76772 | 32943 ft | 553 kts | 92° |
| 2026-04-25 16:18 | 43.07964 | -37.66255 | 32943 ft | 553 kts | 92° |
| 2026-04-25 16:19 | 43.08211 | -37.55753 | 32949 ft | 552 kts | 92° |
| 2026-04-25 16:19 | 43.08447 | -37.45250 | 32953 ft | 552 kts | 92° |
| 2026-04-25 16:20 | 43.08734 | -37.29531 | 32959 ft | 551 kts | 92° |
| 2026-04-25 16:21 | 43.09026 | -37.13817 | 32964 ft | 550 kts | 92° |
| 2026-04-25 16:21 | 43.09224 | -37.03366 | 32968 ft | 549 kts | 92° |
| 2026-04-25 16:22 | 43.09413 | -36.92927 | 32973 ft | 548 kts | 92° |
| 2026-04-25 16:22 | 43.09591 | -36.82502 | 32974 ft | 548 kts | 92° |
| 2026-04-25 16:23 | 43.09758 | -36.72095 | 32982 ft | 547 kts | 92° |
| 2026-04-25 16:23 | 43.09916 | -36.61693 | 32983 ft | 547 kts | 92° |
| 2026-04-25 16:24 | 43.10067 | -36.51292 | 32975 ft | 547 kts | 92° |
| 2026-04-25 16:24 | 43.10207 | -36.40907 | 32983 ft | 546 kts | 92° |
| 2026-04-25 16:25 | 43.10334 | -36.30522 | 32993 ft | 546 kts | 92° |
| 2026-04-25 16:25 | 43.10421 | -36.20143 | 32983 ft | 545 kts | 92° |
| 2026-04-25 16:26 | 43.10500 | -36.09847 | 32997 ft | 545 kts | 92° |
| 2026-04-25 16:26 | 43.10593 | -35.99478 | 32999 ft | 545 kts | 92° |
| 2026-04-25 16:27 | 43.10687 | -35.89124 | 32998 ft | 542 kts | 92° |
| 2026-04-25 16:27 | 43.10771 | -35.78824 | 33001 ft | 541 kts | 92° |
| 2026-04-25 16:28 | 43.10843 | -35.68529 | 33008 ft | 541 kts | 92° |
| 2026-04-25 16:28 | 43.10905 | -35.58245 | 33008 ft | 540 kts | 92° |
| 2026-04-25 16:29 | 43.10959 | -35.47970 | 33008 ft | 540 kts | 92° |
| 2026-04-25 16:29 | 43.11004 | -35.37692 | 33012 ft | 540 kts | 92° |
| 2026-04-25 16:30 | 43.11039 | -35.27429 | 33017 ft | 539 kts | 92° |
| 2026-04-25 16:30 | 43.11065 | -35.17174 | 33018 ft | 539 kts | 92° |
| 2026-04-25 16:31 | 43.11051 | -35.06926 | 33018 ft | 538 kts | 93° |
| 2026-04-25 16:31 | 43.11029 | -34.96697 | 33017 ft | 537 kts | 92° |
| 2026-04-25 16:32 | 43.11020 | -34.86473 | 33027 ft | 537 kts | 92° |
| 2026-04-25 16:32 | 43.11010 | -34.76262 | 33028 ft | 537 kts | 92° |
| 2026-04-25 16:33 | 43.10993 | -34.66057 | 33027 ft | 536 kts | 92° |
| 2026-04-25 16:33 | 43.10969 | -34.57581 | 33028 ft | 536 kts | 92° |
| 2026-04-25 16:34 | 43.10933 | -34.47393 | 33032 ft | 535 kts | 92° |
| 2026-04-25 16:34 | 43.10887 | -34.37201 | 33036 ft | 535 kts | 93° |
| 2026-04-25 16:35 | 43.10833 | -34.27019 | 33034 ft | 535 kts | 93° |
| 2026-04-25 16:35 | 43.10769 | -34.16845 | 33037 ft | 534 kts | 93° |
| 2026-04-25 16:36 | 43.10698 | -34.06677 | 33032 ft | 534 kts | 93° |
| 2026-04-25 16:36 | 43.10599 | -33.96520 | 33034 ft | 534 kts | 93° |
| 2026-04-25 16:37 | 43.10471 | -33.86382 | 33046 ft | 532 kts | 93° |
| 2026-04-25 16:37 | 43.10359 | -33.76261 | 33046 ft | 532 kts | 93° |
| 2026-04-25 16:38 | 43.10252 | -33.66206 | 33046 ft | 532 kts | 93° |
| 2026-04-25 16:38 | 43.10136 | -33.56083 | 33046 ft | 532 kts | 93° |
| 2026-04-25 16:39 | 43.10010 | -33.45887 | 33039 ft | 532 kts | 93° |
| 2026-04-25 16:39 | 43.09874 | -33.35834 | 33046 ft | 532 kts | 93° |
| 2026-04-25 16:40 | 43.09731 | -33.25726 | 33046 ft | 531 kts | 93° |
| 2026-04-25 16:40 | 43.09579 | -33.15549 | 33054 ft | 532 kts | 93° |
| 2026-04-25 16:41 | 43.09419 | -33.05510 | 33054 ft | 531 kts | 93° |
| 2026-04-25 16:41 | 43.09160 | -32.90371 | 33054 ft | 531 kts | 93° |
| 2026-04-25 16:42 | 43.08950 | -32.80289 | 33055 ft | 530 kts | 94° |
| 2026-04-25 16:42 | 43.08724 | -32.70210 | 33054 ft | 530 kts | 93° |
| 2026-04-25 16:43 | 43.08515 | -32.60131 | 33054 ft | 530 kts | 93° |
| 2026-04-25 16:43 | 43.08307 | -32.50048 | 33054 ft | 530 kts | 93° |
| 2026-04-25 16:44 | 43.08090 | -32.39963 | 33054 ft | 530 kts | 93° |
| 2026-04-25 16:44 | 43.07863 | -32.29883 | 33057 ft | 530 kts | 93° |
| 2026-04-25 16:45 | 43.07626 | -32.19795 | 33063 ft | 531 kts | 93° |
| 2026-04-25 16:45 | 43.07379 | -32.09712 | 33064 ft | 530 kts | 94° |
| 2026-04-25 16:46 | 43.07124 | -31.99634 | 33064 ft | 531 kts | 94° |
| 2026-04-25 16:46 | 43.06906 | -31.91256 | 33064 ft | 529 kts | 93° |
| 2026-04-25 16:47 | 43.06590 | -31.79512 | 33063 ft | 528 kts | 93° |
| 2026-04-25 16:47 | 43.06295 | -31.69473 | 33064 ft | 528 kts | 94° |
| 2026-04-25 16:48 | 43.05969 | -31.59438 | 33063 ft | 528 kts | 94° |
| 2026-04-25 16:48 | 43.05658 | -31.49415 | 33064 ft | 528 kts | 93° |
| 2026-04-25 16:49 | 43.05352 | -31.39393 | 33064 ft | 528 kts | 93° |
| 2026-04-25 16:49 | 43.05038 | -31.29381 | 33063 ft | 527 kts | 93° |
| 2026-04-25 16:50 | 43.04717 | -31.19385 | 33064 ft | 526 kts | 93° |
| 2026-04-25 16:50 | 43.04387 | -31.09386 | 33064 ft | 526 kts | 93° |
| 2026-04-25 16:51 | 43.04050 | -30.99467 | 33081 ft | 526 kts | 93° |
| 2026-04-25 16:51 | 43.03758 | -30.91100 | 33082 ft | 525 kts | 93° |
| 2026-04-25 16:52 | 43.03343 | -30.79519 | 33082 ft | 525 kts | 93° |
| 2026-04-25 16:52 | 43.02981 | -30.69560 | 33082 ft | 524 kts | 93° |
| 2026-04-25 16:53 | 43.02394 | -30.54640 | 33082 ft | 524 kts | 94° |
| 2026-04-25 16:54 | 43.01972 | -30.44708 | 33082 ft | 524 kts | 94° |
| 2026-04-25 16:54 | 43.01568 | -30.34775 | 33082 ft | 523 kts | 94° |
| 2026-04-25 16:55 | 43.01165 | -30.24854 | 33082 ft | 523 kts | 94° |
| 2026-04-25 16:55 | 43.00755 | -30.14932 | 33082 ft | 523 kts | 94° |
| 2026-04-25 16:56 | 43.00336 | -30.05018 | 33082 ft | 523 kts | 94° |
| 2026-04-25 16:56 | 43.00215 | -29.95091 | 33082 ft | 522 kts | 88° |
| 2026-04-25 16:57 | 43.00629 | -29.85209 | 33082 ft | 520 kts | 85° |
| 2026-04-25 16:57 | 43.01125 | -29.75346 | 33082 ft | 520 kts | 85° |
| 2026-04-25 16:58 | 43.01568 | -29.65481 | 33082 ft | 520 kts | 86° |
| 2026-04-25 16:58 | 43.01971 | -29.55606 | 33082 ft | 520 kts | 86° |
| 2026-04-25 16:59 | 43.02363 | -29.45736 | 33082 ft | 520 kts | 86° |
| 2026-04-25 16:59 | 43.02749 | -29.35864 | 33082 ft | 520 kts | 86° |
| 2026-04-25 17:00 | 43.03128 | -29.25995 | 33095 ft | 520 kts | 86° |
| 2026-04-25 17:00 | 43.03499 | -29.16124 | 33100 ft | 520 kts | 86° |
| 2026-04-25 17:01 | 43.03856 | -29.06260 | 33100 ft | 520 kts | 86° |
| 2026-04-25 17:01 | 43.04210 | -28.96395 | 33102 ft | 519 kts | 86° |
| 2026-04-25 17:02 | 43.04545 | -28.86614 | 33102 ft | 518 kts | 86° |
| 2026-04-25 17:02 | 43.04841 | -28.76767 | 33102 ft | 518 kts | 86° |
| 2026-04-25 17:03 | 43.05148 | -28.66933 | 33104 ft | 518 kts | 86° |
| 2026-04-25 17:03 | 43.05463 | -28.57096 | 33109 ft | 518 kts | 86° |
| 2026-04-25 17:04 | 43.05772 | -28.47272 | 33109 ft | 518 kts | 86° |
| 2026-04-25 17:04 | 43.06073 | -28.37432 | 33109 ft | 518 kts | 86° |
| 2026-04-25 17:05 | 43.06365 | -28.27595 | 33110 ft | 518 kts | 86° |
| 2026-04-25 17:05 | 43.06787 | -28.12834 | 33110 ft | 518 kts | 86° |
| 2026-04-25 17:06 | 43.07058 | -28.02995 | 33110 ft | 518 kts | 86° |
| 2026-04-25 17:06 | 43.07319 | -27.93159 | 33110 ft | 517 kts | 86° |
| 2026-04-25 17:07 | 43.07574 | -27.83342 | 33110 ft | 516 kts | 86° |
| 2026-04-25 17:07 | 43.07814 | -27.73532 | 33110 ft | 516 kts | 86° |
| 2026-04-25 17:08 | 43.08009 | -27.63718 | 33110 ft | 516 kts | 86° |
| 2026-04-25 17:08 | 43.08216 | -27.53911 | 33110 ft | 515 kts | 86° |
| 2026-04-25 17:09 | 43.08433 | -27.44114 | 33110 ft | 515 kts | 86° |
| 2026-04-25 17:09 | 43.08644 | -27.34321 | 33110 ft | 515 kts | 86° |
| 2026-04-25 17:10 | 43.08847 | -27.24527 | 33109 ft | 515 kts | 86° |
| 2026-04-25 17:10 | 43.09040 | -27.14741 | 33109 ft | 514 kts | 86° |
| 2026-04-25 17:11 | 43.09226 | -27.04968 | 33113 ft | 514 kts | 86° |
| 2026-04-25 17:11 | 43.09403 | -26.95259 | 33119 ft | 514 kts | 86° |
| 2026-04-25 17:12 | 43.09570 | -26.85488 | 33119 ft | 514 kts | 86° |
| 2026-04-25 17:12 | 43.09730 | -26.75732 | 33119 ft | 513 kts | 86° |
| 2026-04-25 17:13 | 43.09832 | -26.69207 | 33119 ft | 513 kts | 86° |
| 2026-04-25 17:13 | 43.10009 | -26.56227 | 33119 ft | 513 kts | 87° |
| 2026-04-25 17:14 | 43.10106 | -26.46472 | 33119 ft | 513 kts | 87° |
| 2026-04-25 17:14 | 43.10219 | -26.36717 | 33119 ft | 513 kts | 87° |
| 2026-04-25 17:15 | 43.10336 | -26.26965 | 33119 ft | 512 kts | 87° |
| 2026-04-25 17:15 | 43.10448 | -26.17217 | 33119 ft | 513 kts | 87° |
| 2026-04-25 17:16 | 43.10550 | -26.07461 | 33119 ft | 512 kts | 87° |
| 2026-04-25 17:16 | 43.10642 | -25.97714 | 33119 ft | 513 kts | 87° |
| 2026-04-25 17:17 | 43.10727 | -25.87962 | 33119 ft | 513 kts | 88° |
| 2026-04-25 17:17 | 43.10803 | -25.78203 | 33111 ft | 513 kts | 88° |
| 2026-04-25 17:18 | 43.10873 | -25.68440 | 33104 ft | 513 kts | 88° |
| 2026-04-25 17:18 | 43.10932 | -25.58671 | 33102 ft | 513 kts | 88° |
| 2026-04-25 17:19 | 43.10985 | -25.48904 | 33100 ft | 514 kts | 88° |
| 2026-04-25 17:19 | 43.10996 | -25.39119 | 33101 ft | 514 kts | 89° |
| 2026-04-25 17:20 | 43.11001 | -25.29324 | 33100 ft | 515 kts | 89° |
| 2026-04-25 17:20 | 43.11018 | -25.21183 | 33100 ft | 515 kts | 89° |
| 2026-04-25 17:21 | 43.11042 | -25.09787 | 33101 ft | 515 kts | 89° |
| 2026-04-25 17:21 | 43.11050 | -24.99978 | 33101 ft | 516 kts | 89° |
| 2026-04-25 17:22 | 43.11054 | -24.93409 | 33096 ft | 516 kts | 89° |
| 2026-04-25 17:22 | 43.11048 | -24.81924 | 33101 ft | 517 kts | 89° |
| 2026-04-25 17:23 | 43.11034 | -24.72097 | 33100 ft | 516 kts | 89° |
| 2026-04-25 17:23 | 43.11012 | -24.62268 | 33103 ft | 516 kts | 90° |
| 2026-04-25 17:24 | 43.10980 | -24.52435 | 33099 ft | 517 kts | 90° |
| 2026-04-25 17:24 | 43.10941 | -24.42597 | 33097 ft | 517 kts | 90° |
| 2026-04-25 17:25 | 43.10892 | -24.32818 | 33102 ft | 517 kts | 90° |
| 2026-04-25 17:25 | 43.10798 | -24.22981 | 33102 ft | 517 kts | 90° |
| 2026-04-25 17:26 | 43.10711 | -24.13135 | 33102 ft | 517 kts | 90° |
| 2026-04-25 17:26 | 43.10634 | -24.03289 | 33100 ft | 517 kts | 90° |
| 2026-04-25 17:27 | 43.10554 | -23.93442 | 33101 ft | 519 kts | 91° |
| 2026-04-25 17:27 | 43.10479 | -23.85145 | 33099 ft | 522 kts | 91° |
| 2026-04-25 17:28 | 43.10364 | -23.73593 | 33099 ft | 522 kts | 91° |
| 2026-04-25 17:28 | 43.10255 | -23.63662 | 33099 ft | 522 kts | 92° |
| 2026-04-25 17:29 | 43.10137 | -23.53659 | 33102 ft | 522 kts | 92° |
| 2026-04-25 17:29 | 43.10012 | -23.43790 | 33102 ft | 523 kts | 92° |
| 2026-04-25 17:30 | 43.09877 | -23.33842 | 33102 ft | 523 kts | 92° |
| 2026-04-25 17:30 | 43.09736 | -23.23883 | 33101 ft | 524 kts | 92° |
| 2026-04-25 17:31 | 43.09563 | -23.13916 | 33096 ft | 524 kts | 93° |
| 2026-04-25 17:31 | 43.09366 | -23.03946 | 33100 ft | 525 kts | 93° |
| 2026-04-25 17:32 | 43.09185 | -22.93961 | 33101 ft | 525 kts | 93° |
| 2026-04-25 17:32 | 43.09006 | -22.83964 | 33102 ft | 526 kts | 93° |
| 2026-04-25 17:33 | 43.08821 | -22.73962 | 33102 ft | 527 kts | 93° |
| 2026-04-25 17:33 | 43.08624 | -22.63950 | 33107 ft | 527 kts | 94° |
| 2026-04-25 17:34 | 43.08416 | -22.53923 | 33109 ft | 527 kts | 94° |
| 2026-04-25 17:34 | 43.08203 | -22.43897 | 33110 ft | 527 kts | 94° |
| 2026-04-25 17:35 | 43.07981 | -22.33871 | 33110 ft | 528 kts | 94° |
| 2026-04-25 17:35 | 43.07749 | -22.23832 | 33110 ft | 528 kts | 94° |
| 2026-04-25 17:36 | 43.07508 | -22.13790 | 33110 ft | 528 kts | 94° |
| 2026-04-25 17:36 | 43.07253 | -22.03755 | 33110 ft | 528 kts | 95° |
| 2026-04-25 17:37 | 43.06955 | -21.93724 | 33110 ft | 529 kts | 95° |
| 2026-04-25 17:37 | 43.06668 | -21.83675 | 33110 ft | 529 kts | 95° |
| 2026-04-25 17:38 | 43.06435 | -21.75323 | 33116 ft | 529 kts | 95° |
| 2026-04-25 17:38 | 43.06105 | -21.63577 | 33119 ft | 529 kts | 96° |
| 2026-04-25 17:39 | 43.05811 | -21.53527 | 33119 ft | 529 kts | 96° |
| 2026-04-25 17:39 | 43.05509 | -21.43480 | 33119 ft | 529 kts | 96° |
| 2026-04-25 17:40 | 43.05198 | -21.33437 | 33119 ft | 529 kts | 96° |
| 2026-04-25 17:40 | 43.04877 | -21.23393 | 33119 ft | 529 kts | 96° |
| 2026-04-25 17:41 | 43.04548 | -21.13417 | 33119 ft | 529 kts | 96° |
| 2026-04-25 17:41 | 43.04210 | -21.03376 | 33119 ft | 528 kts | 96° |
| 2026-04-25 17:42 | 43.03866 | -20.93346 | 33119 ft | 528 kts | 97° |
| 2026-04-25 17:42 | 43.03475 | -20.83331 | 33119 ft | 528 kts | 97° |
| 2026-04-25 17:43 | 43.03082 | -20.73307 | 33119 ft | 528 kts | 97° |
| 2026-04-25 17:43 | 43.02704 | -20.63291 | 33119 ft | 528 kts | 97° |
| 2026-04-25 17:44 | 43.02325 | -20.53275 | 33119 ft | 527 kts | 97° |
| 2026-04-25 17:44 | 43.01936 | -20.43265 | 33119 ft | 527 kts | 97° |
| 2026-04-25 17:45 | 43.01670 | -20.36570 | 33119 ft | 528 kts | 97° |
| 2026-04-25 17:45 | 43.01130 | -20.23249 | 33119 ft | 527 kts | 97° |
| 2026-04-25 17:46 | 43.00714 | -20.13251 | 33119 ft | 527 kts | 98° |
| 2026-04-25 17:46 | 43.00304 | -20.03246 | 33118 ft | 528 kts | 96° |
| 2026-04-25 17:47 | 43.00754 | -19.93179 | 33119 ft | 534 kts | 86° |
| 2026-04-25 17:47 | 43.01861 | -19.83158 | 33119 ft | 533 kts | 84° |
| 2026-04-25 17:48 | 43.03511 | -19.68131 | 33119 ft | 533 kts | 85° |
| 2026-04-25 17:49 | 43.04516 | -19.58090 | 33119 ft | 533 kts | 86° |
| 2026-04-25 17:49 | 43.05498 | -19.48056 | 33119 ft | 532 kts | 86° |
| 2026-04-25 17:50 | 43.06474 | -19.38028 | 33119 ft | 532 kts | 86° |
| 2026-04-25 17:50 | 43.07446 | -19.27997 | 33119 ft | 532 kts | 86° |
| 2026-04-25 17:51 | 43.08407 | -19.17981 | 33119 ft | 531 kts | 86° |
| 2026-04-25 17:51 | 43.09358 | -19.07959 | 33119 ft | 531 kts | 86° |
| 2026-04-25 17:52 | 43.10300 | -18.97954 | 33119 ft | 530 kts | 86° |
| 2026-04-25 17:52 | 43.11222 | -18.88012 | 33107 ft | 530 kts | 86° |
| 2026-04-25 17:53 | 43.12106 | -18.77999 | 33099 ft | 530 kts | 86° |
| 2026-04-25 17:53 | 43.12999 | -18.67991 | 33099 ft | 530 kts | 86° |
| 2026-04-25 17:54 | 43.13903 | -18.57987 | 33100 ft | 530 kts | 86° |
| 2026-04-25 17:54 | 43.14803 | -18.47972 | 33096 ft | 530 kts | 86° |
| 2026-04-25 17:55 | 43.15692 | -18.37955 | 33097 ft | 529 kts | 86° |
| 2026-04-25 17:55 | 43.16571 | -18.27940 | 33099 ft | 529 kts | 86° |
| 2026-04-25 17:56 | 43.17440 | -18.17934 | 33099 ft | 529 kts | 86° |
| 2026-04-25 17:56 | 43.18304 | -18.07927 | 33098 ft | 529 kts | 86° |
| 2026-04-25 17:57 | 43.19154 | -17.97914 | 33102 ft | 529 kts | 86° |
| 2026-04-25 17:57 | 43.19995 | -17.87909 | 33099 ft | 527 kts | 86° |
| 2026-04-25 17:58 | 43.20826 | -17.77933 | 33102 ft | 527 kts | 86° |
| 2026-04-25 17:58 | 43.21613 | -17.67951 | 33100 ft | 526 kts | 86° |
| 2026-04-25 17:59 | 43.22400 | -17.57982 | 33100 ft | 526 kts | 86° |
| 2026-04-25 17:59 | 43.23198 | -17.48008 | 33102 ft | 526 kts | 86° |
| 2026-04-25 18:00 | 43.23993 | -17.38041 | 33102 ft | 526 kts | 86° |
| 2026-04-25 18:00 | 43.24780 | -17.28084 | 33099 ft | 525 kts | 86° |
| 2026-04-25 18:01 | 43.25556 | -17.18130 | 33100 ft | 524 kts | 86° |
| 2026-04-25 18:01 | 43.26318 | -17.08246 | 33099 ft | 525 kts | 86° |
| 2026-04-25 18:02 | 43.27076 | -16.98299 | 33102 ft | 524 kts | 86° |
| 2026-04-25 18:02 | 43.27830 | -16.88290 | 33102 ft | 523 kts | 86° |
| 2026-04-25 18:03 | 43.28568 | -16.78356 | 33099 ft | 523 kts | 86° |
| 2026-04-25 18:03 | 43.29293 | -16.68488 | 33102 ft | 523 kts | 86° |
| 2026-04-25 18:04 | 43.29998 | -16.58554 | 33101 ft | 522 kts | 87° |
| 2026-04-25 18:04 | 43.30674 | -16.48630 | 33109 ft | 522 kts | 87° |
| 2026-04-25 18:05 | 43.31364 | -16.38720 | 33110 ft | 521 kts | 87° |
| 2026-04-25 18:05 | 43.32056 | -16.28816 | 33110 ft | 521 kts | 87° |
| 2026-04-25 18:06 | 43.32741 | -16.18912 | 33110 ft | 521 kts | 87° |
| 2026-04-25 18:06 | 43.33417 | -16.09014 | 33110 ft | 521 kts | 87° |
| 2026-04-25 18:07 | 43.34084 | -15.99107 | 33109 ft | 520 kts | 87° |
| 2026-04-25 18:07 | 43.34742 | -15.89229 | 33109 ft | 518 kts | 87° |
| 2026-04-25 18:08 | 43.35389 | -15.79380 | 33109 ft | 518 kts | 87° |
| 2026-04-25 18:08 | 43.36023 | -15.69525 | 33110 ft | 518 kts | 87° |
| 2026-04-25 18:09 | 43.36546 | -15.61337 | 33110 ft | 517 kts | 87° |
| 2026-04-25 18:09 | 43.37169 | -15.51491 | 33109 ft | 517 kts | 87° |
| 2026-04-25 18:10 | 43.37750 | -15.41639 | 33110 ft | 516 kts | 88° |
| 2026-04-25 18:10 | 43.38325 | -15.31806 | 33110 ft | 516 kts | 88° |
| 2026-04-25 18:11 | 43.38911 | -15.21981 | 33110 ft | 516 kts | 87° |
| 2026-04-25 18:11 | 43.39498 | -15.12161 | 33110 ft | 515 kts | 87° |
| 2026-04-25 18:12 | 43.40075 | -15.02348 | 33110 ft | 515 kts | 87° |
| 2026-04-25 18:12 | 43.40642 | -14.92546 | 33110 ft | 514 kts | 87° |
| 2026-04-25 18:13 | 43.41200 | -14.82751 | 33110 ft | 513 kts | 87° |
| 2026-04-25 18:13 | 43.41752 | -14.72963 | 33110 ft | 513 kts | 87° |
| 2026-04-25 18:14 | 43.42560 | -14.58275 | 33110 ft | 513 kts | 87° |
| 2026-04-25 18:14 | 43.43088 | -14.48491 | 33110 ft | 513 kts | 87° |
| 2026-04-25 18:15 | 43.43607 | -14.38722 | 33110 ft | 512 kts | 87° |
| 2026-04-25 18:15 | 43.44091 | -14.28946 | 33110 ft | 512 kts | 88° |
| 2026-04-25 18:16 | 43.44560 | -14.19170 | 33118 ft | 512 kts | 88° |
| 2026-04-25 18:17 | 43.45288 | -14.04511 | 33119 ft | 512 kts | 88° |
| 2026-04-25 18:17 | 43.45772 | -13.94738 | 33119 ft | 512 kts | 88° |
| 2026-04-25 18:18 | 43.46246 | -13.84983 | 33119 ft | 511 kts | 88° |
| 2026-04-25 18:18 | 43.46710 | -13.75223 | 33119 ft | 511 kts | 88° |
| 2026-04-25 18:19 | 43.47160 | -13.65531 | 33172 ft | 511 kts | 88° |
| 2026-04-25 18:19 | 43.47384 | -13.60651 | 33423 ft | 510 kts | 88° |
| 2026-04-25 18:19 | 43.47607 | -13.55783 | 33667 ft | 509 kts | 88° |
| 2026-04-25 18:19 | 43.47826 | -13.50925 | 33905 ft | 508 kts | 88° |
| 2026-04-25 18:20 | 43.48044 | -13.46072 | 34127 ft | 508 kts | 88° |
| 2026-04-25 18:20 | 43.48259 | -13.41224 | 34348 ft | 507 kts | 88° |
| 2026-04-25 18:20 | 43.48473 | -13.36315 | 34540 ft | 507 kts | 88° |
| 2026-04-25 18:20 | 43.48683 | -13.31478 | 34746 ft | 506 kts | 88° |
| 2026-04-25 18:21 | 43.48892 | -13.26639 | 34976 ft | 505 kts | 88° |
| 2026-04-25 18:21 | 43.49095 | -13.21818 | 35082 ft | 504 kts | 88° |
| 2026-04-25 18:21 | 43.49283 | -13.16991 | 35113 ft | 505 kts | 89° |
| 2026-04-25 18:22 | 43.49646 | -13.07327 | 35118 ft | 505 kts | 89° |
| 2026-04-25 18:22 | 43.49939 | -12.97665 | 35117 ft | 504 kts | 91° |
| 2026-04-25 18:23 | 43.49779 | -12.88024 | 35120 ft | 503 kts | 94° |
| 2026-04-25 18:23 | 43.49474 | -12.78462 | 35117 ft | 503 kts | 95° |
| 2026-04-25 18:24 | 43.49177 | -12.68844 | 35118 ft | 503 kts | 94° |
| 2026-04-25 18:24 | 43.48898 | -12.59229 | 35121 ft | 502 kts | 94° |
| 2026-04-25 18:25 | 43.48618 | -12.49554 | 35121 ft | 503 kts | 94° |
| 2026-04-25 18:25 | 43.48332 | -12.39936 | 35120 ft | 502 kts | 95° |
| 2026-04-25 18:26 | 43.48041 | -12.30391 | 35120 ft | 502 kts | 95° |
| 2026-04-25 18:26 | 43.47740 | -12.20778 | 35120 ft | 502 kts | 95° |
| 2026-04-25 18:27 | 43.47429 | -12.11170 | 35118 ft | 502 kts | 95° |
| 2026-04-25 18:27 | 43.47107 | -12.01565 | 35120 ft | 502 kts | 95° |
| 2026-04-25 18:28 | 43.46778 | -11.91963 | 35120 ft | 502 kts | 95° |
| 2026-04-25 18:28 | 43.46431 | -11.82373 | 35118 ft | 502 kts | 95° |
| 2026-04-25 18:29 | 43.45863 | -11.67993 | 35115 ft | 502 kts | 95° |
| 2026-04-25 18:30 | 43.45138 | -11.48820 | 35111 ft | 501 kts | 95° |
| 2026-04-25 18:30 | 43.44770 | -11.39239 | 35146 ft | 502 kts | 95° |
| 2026-04-25 18:31 | 43.44389 | -11.29656 | 35147 ft | 502 kts | 95° |
| 2026-04-25 18:31 | 43.44004 | -11.20139 | 35146 ft | 501 kts | 95° |
| 2026-04-25 18:32 | 43.43608 | -11.10566 | 35144 ft | 501 kts | 95° |
| 2026-04-25 18:32 | 43.43205 | -11.00998 | 35147 ft | 501 kts | 95° |
| 2026-04-25 18:33 | 43.42793 | -10.91423 | 35147 ft | 501 kts | 95° |
| 2026-04-25 18:33 | 43.42373 | -10.81846 | 35147 ft | 502 kts | 95° |
| 2026-04-25 18:34 | 43.41944 | -10.72275 | 35144 ft | 501 kts | 95° |
| 2026-04-25 18:34 | 43.41474 | -10.62713 | 35147 ft | 501 kts | 95° |
| 2026-04-25 18:35 | 43.41004 | -10.53142 | 35146 ft | 501 kts | 95° |
| 2026-04-25 18:35 | 43.40549 | -10.43577 | 35147 ft | 501 kts | 95° |
| 2026-04-25 18:36 | 43.40090 | -10.34013 | 35147 ft | 501 kts | 95° |
| 2026-04-25 18:36 | 43.39623 | -10.24452 | 35147 ft | 501 kts | 95° |
| 2026-04-25 18:37 | 43.39148 | -10.14894 | 35140 ft | 501 kts | 95° |
| 2026-04-25 18:37 | 43.38664 | -10.05339 | 35146 ft | 501 kts | 95° |
| 2026-04-25 18:38 | 43.38174 | -9.95787 | 35140 ft | 501 kts | 95° |
| 2026-04-25 18:38 | 43.37674 | -9.86224 | 35139 ft | 502 kts | 95° |
| 2026-04-25 18:39 | 43.37166 | -9.76666 | 35140 ft | 501 kts | 95° |
| 2026-04-25 18:39 | 43.36651 | -9.67109 | 35139 ft | 501 kts | 95° |
| 2026-04-25 18:40 | 43.36126 | -9.57564 | 35135 ft | 501 kts | 95° |
| 2026-04-25 18:40 | 43.35559 | -9.48021 | 35139 ft | 501 kts | 95° |
| 2026-04-25 18:41 | 43.34995 | -9.38476 | 35137 ft | 501 kts | 95° |
| 2026-04-25 18:41 | 43.34443 | -9.28933 | 35139 ft | 501 kts | 94° |
| 2026-04-25 18:42 | 43.34078 | -9.22620 | 35139 ft | 500 kts | 94° |
| 2026-04-25 18:42 | 43.33332 | -9.09942 | 35137 ft | 500 kts | 94° |
| 2026-04-25 18:43 | 43.32764 | -9.00417 | 35131 ft | 500 kts | 94° |
| 2026-04-25 18:43 | 43.32186 | -8.90897 | 35130 ft | 500 kts | 94° |
| 2026-04-25 18:44 | 43.31599 | -8.81380 | 35130 ft | 500 kts | 94° |
| 2026-04-25 18:44 | 43.31006 | -8.71876 | 35125 ft | 500 kts | 94° |
| 2026-04-25 18:45 | 43.30402 | -8.62375 | 35130 ft | 499 kts | 94° |
| 2026-04-25 18:45 | 43.29793 | -8.52878 | 35128 ft | 499 kts | 94° |
| 2026-04-25 18:46 | 43.29177 | -8.43381 | 35130 ft | 500 kts | 94° |
| 2026-04-25 18:46 | 43.28516 | -8.33882 | 35127 ft | 500 kts | 95° |
| 2026-04-25 18:47 | 43.27861 | -8.24385 | 35127 ft | 500 kts | 94° |
| 2026-04-25 18:47 | 43.27216 | -8.14895 | 35127 ft | 500 kts | 94° |
| 2026-04-25 18:48 | 43.26565 | -8.05394 | 35129 ft | 500 kts | 94° |
| 2026-04-25 18:48 | 43.25911 | -7.95890 | 35129 ft | 500 kts | 94° |
| 2026-04-25 18:49 | 43.25250 | -7.86414 | 35128 ft | 498 kts | 94° |
| 2026-04-25 18:49 | 43.24579 | -7.76971 | 35129 ft | 498 kts | 95° |
| 2026-04-25 18:50 | 43.23901 | -7.67521 | 35133 ft | 497 kts | 94° |
| 2026-04-25 18:50 | 43.23223 | -7.58149 | 35137 ft | 497 kts | 95° |
| 2026-04-25 18:51 | 43.22762 | -7.51844 | 35140 ft | 497 kts | 95° |
| 2026-04-25 18:51 | 43.21631 | -7.39343 | 35140 ft | 496 kts | 98° |
| 2026-04-25 18:52 | 43.20501 | -7.30011 | 35135 ft | 496 kts | 98° |
| 2026-04-25 18:52 | 43.19364 | -7.20703 | 35141 ft | 495 kts | 98° |
| 2026-04-25 18:53 | 43.18242 | -7.11396 | 35147 ft | 495 kts | 98° |
| 2026-04-25 18:53 | 43.17123 | -7.02105 | 35147 ft | 494 kts | 98° |
| 2026-04-25 18:54 | 43.15434 | -6.88181 | 35153 ft | 494 kts | 98° |
| 2026-04-25 18:55 | 43.14300 | -6.78909 | 35155 ft | 493 kts | 98° |
| 2026-04-25 18:55 | 43.13161 | -6.69650 | 35156 ft | 493 kts | 98° |
| 2026-04-25 18:56 | 43.12012 | -6.60402 | 35157 ft | 492 kts | 99° |
| 2026-04-25 18:56 | 43.11046 | -6.52661 | 35155 ft | 492 kts | 99° |
| 2026-04-25 18:57 | 43.09885 | -6.43431 | 35162 ft | 492 kts | 99° |
| 2026-04-25 18:57 | 43.08717 | -6.34213 | 35164 ft | 492 kts | 99° |
| 2026-04-25 18:58 | 43.07510 | -6.25013 | 35164 ft | 491 kts | 99° |
| 2026-04-25 18:58 | 43.05709 | -6.11225 | 35160 ft | 491 kts | 99° |
| 2026-04-25 18:59 | 43.03322 | -5.92837 | 35158 ft | 491 kts | 100° |
| 2026-04-25 19:00 | 43.01513 | -5.79082 | 35156 ft | 490 kts | 100° |
| 2026-04-25 19:01 | 42.99692 | -5.65318 | 35156 ft | 491 kts | 100° |
| 2026-04-25 19:01 | 42.98463 | -5.56136 | 35148 ft | 491 kts | 100° |
| 2026-04-25 19:02 | 42.96605 | -5.42382 | 35147 ft | 491 kts | 101° |
| 2026-04-25 19:03 | 42.94945 | -5.30166 | 35147 ft | 492 kts | 101° |
| 2026-04-25 19:03 | 42.93465 | -5.19439 | 35141 ft | 492 kts | 101° |
| 2026-04-25 19:04 | 42.91521 | -5.05745 | 35153 ft | 492 kts | 101° |
| 2026-04-25 19:05 | 42.88948 | -4.87390 | 35156 ft | 493 kts | 101° |
| 2026-04-25 19:06 | 42.87654 | -4.78209 | 35163 ft | 493 kts | 101° |
| 2026-04-25 19:06 | 42.85699 | -4.64438 | 35165 ft | 494 kts | 102° |
| 2026-04-25 19:07 | 42.83720 | -4.50656 | 35171 ft | 494 kts | 102° |
| 2026-04-25 19:08 | 42.81727 | -4.36871 | 35175 ft | 495 kts | 102° |
| 2026-04-25 19:09 | 42.79267 | -4.20048 | 35174 ft | 494 kts | 102° |
| 2026-04-25 19:10 | 42.76979 | -4.04729 | 35175 ft | 495 kts | 103° |
| 2026-04-25 19:10 | 42.75581 | -3.95561 | 35174 ft | 495 kts | 103° |
| 2026-04-25 19:11 | 42.74196 | -3.86368 | 35174 ft | 497 kts | 103° |
| 2026-04-25 19:11 | 42.72818 | -3.77190 | 35172 ft | 496 kts | 103° |
| 2026-04-25 19:12 | 42.71420 | -3.67967 | 35173 ft | 497 kts | 103° |
| 2026-04-25 19:12 | 42.70017 | -3.58761 | 35174 ft | 497 kts | 103° |
| 2026-04-25 19:13 | 42.68609 | -3.49572 | 35166 ft | 495 kts | 103° |
| 2026-04-25 19:13 | 42.67196 | -3.40389 | 35160 ft | 497 kts | 103° |
| 2026-04-25 19:14 | 42.65774 | -3.31198 | 35156 ft | 497 kts | 103° |
| 2026-04-25 19:14 | 42.64339 | -3.22006 | 35156 ft | 497 kts | 103° |
| 2026-04-25 19:15 | 42.62905 | -3.12828 | 35156 ft | 496 kts | 103° |
| 2026-04-25 19:15 | 42.61460 | -3.03664 | 35155 ft | 497 kts | 103° |
| 2026-04-25 19:16 | 42.59985 | -2.94506 | 35156 ft | 496 kts | 104° |
| 2026-04-25 19:16 | 42.58502 | -2.85416 | 35156 ft | 497 kts | 104° |
| 2026-04-25 19:17 | 42.57025 | -2.76261 | 35156 ft | 497 kts | 103° |
| 2026-04-25 19:17 | 42.55541 | -2.67043 | 35147 ft | 496 kts | 103° |
| 2026-04-25 19:18 | 42.54072 | -2.57960 | 35143 ft | 496 kts | 104° |
| 2026-04-25 19:18 | 42.52585 | -2.48818 | 35146 ft | 496 kts | 104° |
| 2026-04-25 19:19 | 42.51090 | -2.39688 | 35137 ft | 496 kts | 104° |
| 2026-04-25 19:19 | 42.49587 | -2.30567 | 35128 ft | 496 kts | 104° |
| 2026-04-25 19:20 | 42.48081 | -2.21458 | 35130 ft | 496 kts | 104° |
| 2026-04-25 19:20 | 42.46566 | -2.12349 | 35127 ft | 495 kts | 104° |
| 2026-04-25 19:21 | 42.45041 | -2.03248 | 35133 ft | 495 kts | 104° |
| 2026-04-25 19:21 | 42.42790 | -1.89595 | 35130 ft | 496 kts | 102° |
| 2026-04-25 19:22 | 42.41569 | -1.80406 | 35129 ft | 496 kts | 101° |
| 2026-04-25 19:23 | 42.39892 | -1.66590 | 35127 ft | 496 kts | 101° |
| 2026-04-25 19:23 | 42.38182 | -1.52790 | 35119 ft | 496 kts | 101° |
| 2026-04-25 19:24 | 42.37020 | -1.43591 | 35112 ft | 497 kts | 101° |
| 2026-04-25 19:25 | 42.34681 | -1.25182 | 35110 ft | 497 kts | 101° |
| 2026-04-25 19:25 | 42.33500 | -1.15982 | 35109 ft | 497 kts | 101° |
| 2026-04-25 19:26 | 42.32311 | -1.06785 | 35111 ft | 497 kts | 101° |
| 2026-04-25 19:26 | 42.31113 | -0.97578 | 35112 ft | 498 kts | 101° |
| 2026-04-25 19:27 | 42.30315 | -0.91488 | 35118 ft | 498 kts | 101° |
| 2026-04-25 19:27 | 42.28692 | -0.79169 | 35127 ft | 498 kts | 102° |
| 2026-04-25 19:28 | 42.27432 | -0.69985 | 35128 ft | 498 kts | 102° |
| 2026-04-25 19:28 | 42.26180 | -0.60782 | 35126 ft | 498 kts | 101° |
| 2026-04-25 19:29 | 42.24941 | -0.51582 | 35129 ft | 498 kts | 102° |
| 2026-04-25 19:29 | 42.23697 | -0.42384 | 35127 ft | 498 kts | 102° |
| 2026-04-25 19:30 | 42.22447 | -0.33189 | 35220 ft | 498 kts | 102° |
| 2026-04-25 19:30 | 42.21819 | -0.28587 | 35447 ft | 498 kts | 102° |
| 2026-04-25 19:30 | 42.21222 | -0.23995 | 35639 ft | 497 kts | 99° |
| 2026-04-25 19:31 | 42.20828 | -0.19368 | 35846 ft | 497 kts | 96° |
| 2026-04-25 19:31 | 42.20590 | -0.14720 | 36053 ft | 497 kts | 94° |
| 2026-04-25 19:31 | 42.20269 | -0.05414 | 36120 ft | 496 kts | 94° |
| 2026-04-25 19:32 | 42.19938 | 0.03888 | 36125 ft | 497 kts | 94° |
| 2026-04-25 19:32 | 42.19690 | 0.10030 | 36128 ft | 493 kts | 93° |
| 2026-04-25 19:33 | 42.19157 | 0.22352 | 36126 ft | 491 kts | 93° |
| 2026-04-25 19:33 | 42.18751 | 0.31547 | 36131 ft | 491 kts | 93° |
| 2026-04-25 19:34 | 42.18337 | 0.40748 | 36131 ft | 491 kts | 94° |
| 2026-04-25 19:34 | 42.17915 | 0.49944 | 36125 ft | 491 kts | 94° |
| 2026-04-25 19:35 | 42.17488 | 0.59134 | 36131 ft | 492 kts | 94° |
| 2026-04-25 19:35 | 42.17052 | 0.68343 | 36127 ft | 492 kts | 94° |
| 2026-04-25 19:36 | 42.16608 | 0.77554 | 36130 ft | 492 kts | 94° |
| 2026-04-25 19:36 | 42.16156 | 0.86764 | 36140 ft | 492 kts | 94° |
| 2026-04-25 19:37 | 42.15665 | 0.95973 | 36137 ft | 493 kts | 94° |
| 2026-04-25 19:37 | 42.15174 | 1.05180 | 36145 ft | 493 kts | 94° |
| 2026-04-25 19:38 | 42.14698 | 1.14326 | 36145 ft | 493 kts | 94° |
| 2026-04-25 19:38 | 42.14216 | 1.23537 | 36145 ft | 493 kts | 94° |
| 2026-04-25 19:39 | 42.13713 | 1.32743 | 36149 ft | 493 kts | 95° |
| 2026-04-25 19:39 | 42.13090 | 1.41926 | 36146 ft | 492 kts | 96° |
| 2026-04-25 19:40 | 42.12428 | 1.51096 | 36145 ft | 492 kts | 95° |
| 2026-04-25 19:40 | 42.11877 | 1.58768 | 36148 ft | 491 kts | 95° |
| 2026-04-25 19:41 | 42.11222 | 1.67919 | 36146 ft | 491 kts | 95° |
| 2026-04-25 19:41 | 42.10673 | 1.75528 | 36146 ft | 491 kts | 95° |
| 2026-04-25 19:42 | 42.09896 | 1.86156 | 36139 ft | 491 kts | 96° |
| 2026-04-25 19:42 | 42.09217 | 1.95301 | 36127 ft | 491 kts | 96° |
| 2026-04-25 19:43 | 42.08534 | 2.04442 | 36125 ft | 491 kts | 96° |
| 2026-04-25 19:43 | 42.07841 | 2.13588 | 36115 ft | 491 kts | 96° |
| 2026-04-25 19:44 | 42.07143 | 2.22728 | 36109 ft | 491 kts | 96° |
| 2026-04-25 19:44 | 42.06439 | 2.31864 | 36111 ft | 491 kts | 96° |
| 2026-04-25 19:45 | 42.05726 | 2.41000 | 36105 ft | 491 kts | 96° |
| 2026-04-25 19:45 | 42.04975 | 2.50135 | 36102 ft | 491 kts | 96° |
| 2026-04-25 19:46 | 42.04220 | 2.59265 | 36100 ft | 491 kts | 96° |
| 2026-04-25 19:46 | 42.03477 | 2.68418 | 36101 ft | 492 kts | 96° |
| 2026-04-25 19:47 | 42.02735 | 2.77548 | 36100 ft | 491 kts | 96° |
| 2026-04-25 19:47 | 42.01985 | 2.86685 | 36100 ft | 491 kts | 96° |
| 2026-04-25 19:48 | 42.01228 | 2.95824 | 36101 ft | 492 kts | 96° |
| 2026-04-25 19:48 | 42.00461 | 3.04971 | 36101 ft | 492 kts | 96° |
| 2026-04-25 19:49 | 41.99812 | 3.12635 | 36101 ft | 493 kts | 96° |
| 2026-04-25 19:49 | 41.98906 | 3.23227 | 36101 ft | 490 kts | 96° |
| 2026-04-25 19:50 | 41.97731 | 3.36861 | 36101 ft | 490 kts | 96° |
| 2026-04-25 19:51 | 41.96938 | 3.45940 | 36101 ft | 489 kts | 96° |
| 2026-04-25 19:51 | 41.96132 | 3.55022 | 36093 ft | 490 kts | 96° |
| 2026-04-25 19:52 | 41.95285 | 3.64112 | 36091 ft | 490 kts | 96° |
| 2026-04-25 19:52 | 41.94449 | 3.73196 | 36092 ft | 490 kts | 96° |
| 2026-04-25 19:53 | 41.93622 | 3.82283 | 36091 ft | 490 kts | 96° |
| 2026-04-25 19:53 | 41.93019 | 3.91388 | 36089 ft | 489 kts | 88° |
| 2026-04-25 19:54 | 41.94071 | 4.00354 | 36090 ft | 487 kts | 71° |
| 2026-04-25 19:54 | 41.96853 | 4.08620 | 36090 ft | 486 kts | 61° |
| 2026-04-25 19:55 | 41.99953 | 4.16705 | 36092 ft | 487 kts | 63° |
| 2026-04-25 19:55 | 42.02793 | 4.24972 | 36090 ft | 487 kts | 65° |
| 2026-04-25 19:56 | 42.05481 | 4.33325 | 36091 ft | 487 kts | 66° |
| 2026-04-25 19:56 | 42.08414 | 4.41531 | 36091 ft | 486 kts | 56° |
| 2026-04-25 19:57 | 42.12378 | 4.48876 | 36093 ft | 486 kts | 56° |
| 2026-04-25 19:57 | 42.15832 | 4.56710 | 36091 ft | 487 kts | 59° |
| 2026-04-25 19:58 | 42.19220 | 4.64614 | 36089 ft | 487 kts | 58° |
| 2026-04-25 19:58 | 42.22697 | 4.72460 | 36087 ft | 487 kts | 58° |
| 2026-04-25 19:59 | 42.26217 | 4.80287 | 36098 ft | 488 kts | 58° |
| 2026-04-25 19:59 | 42.29739 | 4.88123 | 36101 ft | 488 kts | 58° |
| 2026-04-25 20:00 | 42.33251 | 4.95970 | 36099 ft | 488 kts | 58° |
| 2026-04-25 20:00 | 42.36759 | 5.03829 | 36093 ft | 488 kts | 58° |
| 2026-04-25 20:01 | 42.42011 | 5.15641 | 36089 ft | 488 kts | 58° |
| 2026-04-25 20:01 | 42.45507 | 5.23528 | 36091 ft | 489 kts | 58° |
| 2026-04-25 20:02 | 42.48999 | 5.31427 | 36093 ft | 489 kts | 58° |
| 2026-04-25 20:02 | 42.52485 | 5.39336 | 36089 ft | 489 kts | 58° |
| 2026-04-25 20:03 | 42.55938 | 5.47274 | 36091 ft | 489 kts | 58° |
| 2026-04-25 20:03 | 42.59397 | 5.55212 | 36093 ft | 489 kts | 58° |
| 2026-04-25 20:04 | 42.62864 | 5.63153 | 36089 ft | 489 kts | 58° |
| 2026-04-25 20:04 | 42.66327 | 5.71097 | 36085 ft | 489 kts | 58° |
| 2026-04-25 20:05 | 42.69789 | 5.79051 | 36083 ft | 489 kts | 58° |
| 2026-04-25 20:05 | 42.73244 | 5.87016 | 36081 ft | 489 kts | 58° |
| 2026-04-25 20:06 | 42.76696 | 5.94992 | 36082 ft | 489 kts | 58° |
| 2026-04-25 20:06 | 42.80139 | 6.02971 | 36081 ft | 489 kts | 58° |
| 2026-04-25 20:07 | 42.83579 | 6.10966 | 36082 ft | 489 kts | 58° |
| 2026-04-25 20:07 | 42.87011 | 6.18968 | 36079 ft | 489 kts | 58° |
| 2026-04-25 20:08 | 42.90440 | 6.26982 | 36075 ft | 489 kts | 59° |
| 2026-04-25 20:08 | 42.93867 | 6.35014 | 36074 ft | 490 kts | 59° |
| 2026-04-25 20:09 | 42.97267 | 6.43074 | 36078 ft | 490 kts | 59° |
| 2026-04-25 20:09 | 43.00662 | 6.51138 | 36083 ft | 490 kts | 59° |
| 2026-04-25 20:10 | 43.04069 | 6.59211 | 36083 ft | 490 kts | 59° |
| 2026-04-25 20:10 | 43.07477 | 6.67282 | 36084 ft | 490 kts | 59° |
| 2026-04-25 20:11 | 43.10857 | 6.75309 | 36087 ft | 490 kts | 59° |
| 2026-04-25 20:11 | 43.14252 | 6.83397 | 36081 ft | 490 kts | 59° |
| 2026-04-25 20:12 | 43.17643 | 6.91503 | 36090 ft | 490 kts | 59° |
| 2026-04-25 20:12 | 43.19908 | 6.96931 | 36091 ft | 490 kts | 59° |
| 2026-04-25 20:13 | 43.24412 | 7.07747 | 36101 ft | 491 kts | 59° |
| 2026-04-25 20:13 | 43.27791 | 7.15892 | 36099 ft | 491 kts | 59° |
| 2026-04-25 20:14 | 43.31164 | 7.24038 | 36102 ft | 491 kts | 59° |
| 2026-04-25 20:14 | 43.34530 | 7.32191 | 36101 ft | 491 kts | 59° |
| 2026-04-25 20:15 | 43.37876 | 7.40383 | 36101 ft | 492 kts | 59° |
| 2026-04-25 20:15 | 43.41211 | 7.48596 | 36099 ft | 492 kts | 59° |
| 2026-04-25 20:16 | 43.44563 | 7.56807 | 36101 ft | 492 kts | 59° |
| 2026-04-25 20:16 | 43.47914 | 7.65024 | 36102 ft | 493 kts | 59° |
| 2026-04-25 20:17 | 43.51428 | 7.73113 | 36098 ft | 491 kts | 51° |
| 2026-04-25 20:17 | 43.56172 | 7.79798 | 36101 ft | 488 kts | 38° |
| 2026-04-25 20:18 | 43.61361 | 7.85847 | 36115 ft | 489 kts | 40° |
| 2026-04-25 20:18 | 43.66312 | 7.92318 | 36115 ft | 490 kts | 43° |
| 2026-04-25 20:19 | 43.71094 | 7.99044 | 36121 ft | 491 kts | 44° |
| 2026-04-25 20:19 | 43.75839 | 8.05831 | 36116 ft | 491 kts | 44° |
| 2026-04-25 20:20 | 43.80593 | 8.12627 | 36125 ft | 491 kts | 44° |
| 2026-04-25 20:20 | 43.85347 | 8.19415 | 36121 ft | 491 kts | 44° |
| 2026-04-25 20:21 | 43.90104 | 8.26222 | 36127 ft | 491 kts | 44° |
| 2026-04-25 20:21 | 43.94851 | 8.33030 | 36129 ft | 491 kts | 44° |
| 2026-04-25 20:22 | 43.98001 | 8.37545 | 36120 ft | 491 kts | 44° |
| 2026-04-25 20:22 | 44.03497 | 8.47705 | 36112 ft | 494 kts | 56° |
| 2026-04-25 20:23 | 44.06512 | 8.54465 | 36111 ft | 495 kts | 57° |
| 2026-04-25 20:23 | 44.10076 | 8.62670 | 36114 ft | 495 kts | 57° |
| 2026-04-25 20:24 | 44.13621 | 8.70891 | 36110 ft | 495 kts | 57° |
| 2026-04-25 20:24 | 44.17163 | 8.79143 | 36103 ft | 496 kts | 57° |
| 2026-04-25 20:25 | 44.20697 | 8.87397 | 36098 ft | 496 kts | 57° |
| 2026-04-25 20:25 | 44.24228 | 8.95661 | 36101 ft | 496 kts | 57° |
| 2026-04-25 20:26 | 44.27761 | 9.03941 | 36102 ft | 497 kts | 57° |
| 2026-04-25 20:26 | 44.31286 | 9.12235 | 36100 ft | 497 kts | 57° |
| 2026-04-25 20:27 | 44.34814 | 9.20545 | 36094 ft | 497 kts | 57° |
| 2026-04-25 20:27 | 44.38335 | 9.28868 | 36093 ft | 498 kts | 57° |
| 2026-04-25 20:28 | 44.41858 | 9.37206 | 36080 ft | 498 kts | 57° |
| 2026-04-25 20:28 | 44.45356 | 9.45494 | 36073 ft | 498 kts | 57° |
| 2026-04-25 20:29 | 44.48875 | 9.53843 | 36065 ft | 498 kts | 57° |
| 2026-04-25 20:29 | 44.52397 | 9.62210 | 36052 ft | 498 kts | 57° |
| 2026-04-25 20:30 | 44.55917 | 9.70576 | 36049 ft | 499 kts | 57° |
| 2026-04-25 20:30 | 44.59438 | 9.78956 | 36037 ft | 499 kts | 57° |
| 2026-04-25 20:31 | 44.62958 | 9.87343 | 36027 ft | 499 kts | 57° |
| 2026-04-25 20:31 | 44.66468 | 9.95747 | 36025 ft | 499 kts | 57° |
| 2026-04-25 20:32 | 44.69975 | 10.04165 | 36033 ft | 499 kts | 57° |
| 2026-04-25 20:32 | 44.73516 | 10.12585 | 36026 ft | 500 kts | 54° |
| 2026-04-25 20:33 | 44.78047 | 10.19870 | 36026 ft | 493 kts | 37° |
| 2026-04-25 20:33 | 44.82752 | 10.24442 | 36024 ft | 490 kts | 27° |
| 2026-04-25 20:34 | 44.89633 | 10.29939 | 36017 ft | 489 kts | 26° |
| 2026-04-25 20:34 | 44.95586 | 10.34574 | 36024 ft | 489 kts | 25° |
| 2026-04-25 20:35 | 45.01540 | 10.39205 | 36026 ft | 488 kts | 25° |
| 2026-04-25 20:35 | 45.07366 | 10.44189 | 36027 ft | 491 kts | 33° |
| 2026-04-25 20:36 | 45.12438 | 10.50730 | 36027 ft | 496 kts | 44° |
| 2026-04-25 20:36 | 45.16948 | 10.58161 | 36027 ft | 498 kts | 47° |
| 2026-04-25 20:37 | 45.21339 | 10.65783 | 36019 ft | 499 kts | 47° |
| 2026-04-25 20:37 | 45.25761 | 10.73384 | 36018 ft | 500 kts | 47° |
| 2026-04-25 20:38 | 45.30207 | 10.80971 | 36017 ft | 500 kts | 47° |
| 2026-04-25 20:38 | 45.34659 | 10.88563 | 36017 ft | 501 kts | 47° |
| 2026-04-25 20:39 | 45.39117 | 10.96187 | 36017 ft | 502 kts | 47° |
| 2026-04-25 20:39 | 45.42820 | 11.02544 | 36024 ft | 502 kts | 47° |
| 2026-04-25 20:40 | 45.48020 | 11.11535 | 36026 ft | 504 kts | 48° |
| 2026-04-25 20:40 | 45.52472 | 11.19273 | 36035 ft | 505 kts | 48° |
| 2026-04-25 20:41 | 45.56929 | 11.27018 | 36051 ft | 506 kts | 48° |
| 2026-04-25 20:41 | 45.61417 | 11.34798 | 36044 ft | 508 kts | 48° |
| 2026-04-25 20:42 | 45.65910 | 11.42612 | 36059 ft | 510 kts | 48° |
| 2026-04-25 20:42 | 45.70378 | 11.50408 | 36069 ft | 510 kts | 48° |
| 2026-04-25 20:43 | 45.74880 | 11.58287 | 36083 ft | 512 kts | 48° |
| 2026-04-25 20:43 | 45.79388 | 11.66201 | 36082 ft | 513 kts | 48° |
| 2026-04-25 20:44 | 45.83901 | 11.74149 | 36084 ft | 515 kts | 48° |
| 2026-04-25 20:44 | 45.88421 | 11.82122 | 36066 ft | 515 kts | 48° |
| 2026-04-25 20:45 | 45.92943 | 11.90126 | 36077 ft | 517 kts | 48° |
| 2026-04-25 20:45 | 45.97462 | 11.98152 | 36088 ft | 517 kts | 49° |
| 2026-04-25 20:46 | 46.01958 | 12.06227 | 36100 ft | 517 kts | 49° |
| 2026-04-25 20:46 | 46.06458 | 12.14315 | 36101 ft | 517 kts | 49° |
| 2026-04-25 20:47 | 46.10963 | 12.22389 | 36101 ft | 517 kts | 49° |
| 2026-04-25 20:47 | 46.15463 | 12.30472 | 36099 ft | 516 kts | 49° |
| 2026-04-25 20:48 | 46.19950 | 12.38545 | 36084 ft | 516 kts | 49° |
| 2026-04-25 20:48 | 46.24425 | 12.46629 | 36077 ft | 515 kts | 49° |
| 2026-04-25 20:49 | 46.28887 | 12.54715 | 36078 ft | 514 kts | 49° |
| 2026-04-25 20:49 | 46.33337 | 12.62802 | 36081 ft | 513 kts | 49° |
| 2026-04-25 20:50 | 46.37771 | 12.70885 | 36082 ft | 512 kts | 49° |
| 2026-04-25 20:50 | 46.42198 | 12.78970 | 36079 ft | 512 kts | 49° |
| 2026-04-25 20:51 | 46.46592 | 12.87086 | 36082 ft | 512 kts | 52° |
| 2026-04-25 20:51 | 46.50042 | 12.96131 | 36080 ft | 515 kts | 67° |
| 2026-04-25 20:52 | 46.52035 | 13.04289 | 36080 ft | 517 kts | 69° |
| 2026-04-25 20:52 | 46.54977 | 13.15697 | 36069 ft | 516 kts | 66° |
| 2026-04-25 20:53 | 46.57793 | 13.25288 | 36063 ft | 516 kts | 64° |
| 2026-04-25 20:53 | 46.60686 | 13.34840 | 36064 ft | 516 kts | 64° |
| 2026-04-25 20:54 | 46.63564 | 13.44397 | 36057 ft | 516 kts | 64° |
| 2026-04-25 20:54 | 46.66423 | 13.53975 | 36041 ft | 516 kts | 64° |
| 2026-04-25 20:55 | 46.69271 | 13.63573 | 36036 ft | 516 kts | 65° |
| 2026-04-25 20:55 | 46.72112 | 13.73180 | 36036 ft | 517 kts | 65° |
| 2026-04-25 20:56 | 46.74923 | 13.82741 | 36033 ft | 517 kts | 65° |
| 2026-04-25 20:56 | 46.77750 | 13.92372 | 36027 ft | 517 kts | 65° |
| 2026-04-25 20:57 | 46.80540 | 14.02039 | 36025 ft | 517 kts | 65° |
| 2026-04-25 20:57 | 46.83323 | 14.11719 | 36027 ft | 518 kts | 65° |
| 2026-04-25 20:58 | 46.84724 | 14.16565 | 35843 ft | 515 kts | 65° |
| 2026-04-25 20:58 | 46.86111 | 14.21360 | 35597 ft | 511 kts | 65° |
| 2026-04-25 20:58 | 46.87496 | 14.26147 | 35348 ft | 512 kts | 65° |
| 2026-04-25 20:58 | 46.88881 | 14.30944 | 35101 ft | 512 kts | 65° |
| 2026-04-25 20:59 | 46.90263 | 14.35740 | 34849 ft | 513 kts | 65° |
| 2026-04-25 20:59 | 46.91646 | 14.40549 | 34605 ft | 513 kts | 65° |
| 2026-04-25 20:59 | 46.93027 | 14.45365 | 34351 ft | 514 kts | 65° |
| 2026-04-25 20:59 | 46.94410 | 14.50194 | 34099 ft | 515 kts | 65° |
| 2026-04-25 21:00 | 46.95793 | 14.55030 | 33852 ft | 515 kts | 65° |
| 2026-04-25 21:00 | 46.96258 | 14.56663 | 33757 ft | 516 kts | 65° |
| 2026-04-25 21:00 | 46.99935 | 14.69588 | 33097 ft | 517 kts | 65° |
| 2026-04-25 21:01 | 47.01315 | 14.74458 | 32853 ft | 518 kts | 65° |
| 2026-04-25 21:01 | 47.02694 | 14.79338 | 32602 ft | 519 kts | 65° |
| 2026-04-25 21:01 | 47.04074 | 14.84231 | 32343 ft | 519 kts | 65° |
| 2026-04-25 21:01 | 47.05451 | 14.89121 | 32117 ft | 520 kts | 65° |
| 2026-04-25 21:02 | 47.06831 | 14.94029 | 31852 ft | 520 kts | 65° |
| 2026-04-25 21:02 | 47.08209 | 14.98939 | 31605 ft | 521 kts | 65° |
| 2026-04-25 21:02 | 47.09587 | 15.03859 | 31356 ft | 522 kts | 65° |
| 2026-04-25 21:02 | 47.10958 | 15.08794 | 31106 ft | 522 kts | 66° |
| 2026-04-25 21:03 | 47.12315 | 15.13743 | 30853 ft | 523 kts | 66° |
| 2026-04-25 21:03 | 47.13652 | 15.18627 | 30597 ft | 523 kts | 66° |
| 2026-04-25 21:03 | 47.15017 | 15.23584 | 30364 ft | 523 kts | 66° |
| 2026-04-25 21:03 | 47.16384 | 15.28541 | 30136 ft | 522 kts | 65° |
| 2026-04-25 21:04 | 47.17736 | 15.33447 | 29904 ft | 515 kts | 65° |
| 2026-04-25 21:04 | 47.19078 | 15.38318 | 29672 ft | 513 kts | 65° |
| 2026-04-25 21:04 | 47.20415 | 15.43180 | 29444 ft | 513 kts | 65° |
| 2026-04-25 21:04 | 47.21753 | 15.48049 | 29203 ft | 513 kts | 65° |
| 2026-04-25 21:05 | 47.23089 | 15.52915 | 28991 ft | 513 kts | 65° |
| 2026-04-25 21:05 | 47.24430 | 15.57786 | 28431 ft | 510 kts | 65° |
| 2026-04-25 21:05 | 47.25761 | 15.62630 | 27506 ft | 512 kts | 65° |
| 2026-04-25 21:05 | 47.27094 | 15.67472 | 26215 ft | 508 kts | 65° |
| 2026-04-25 21:06 | 47.28400 | 15.72260 | 24799 ft | 499 kts | 65° |
| 2026-04-25 21:06 | 47.29686 | 15.76957 | 23240 ft | 490 kts | 65° |
| 2026-04-25 21:06 | 47.30969 | 15.81546 | 21585 ft | 479 kts | 65° |
| 2026-04-25 21:06 | 47.31389 | 15.83075 | 21114 ft | 475 kts | 65° |
| 2026-04-25 21:07 | 47.33368 | 15.90500 | 19206 ft | 462 kts | 66° |
| 2026-04-25 21:07 | 47.34517 | 15.94881 | 18259 ft | 454 kts | 65° |
| 2026-04-25 21:07 | 47.35826 | 15.99068 | 17622 ft | 445 kts | 56° |
| 2026-04-25 21:07 | 47.37606 | 16.02742 | 17136 ft | 436 kts | 45° |
| 2026-04-25 21:08 | 47.39778 | 16.05794 | 16533 ft | 427 kts | 33° |
| 2026-04-25 21:08 | 47.42249 | 16.08140 | 15839 ft | 422 kts | 24° |
| 2026-04-25 21:08 | 47.44881 | 16.09963 | 15126 ft | 412 kts | 18° |
| 2026-04-25 21:08 | 47.47536 | 16.11450 | 14465 ft | 407 kts | 15° |
| 2026-04-25 21:09 | 47.52835 | 16.14065 | 13547 ft | 397 kts | 14° |
| 2026-04-25 21:09 | 47.55473 | 16.15267 | 13551 ft | 397 kts | 13° |
| 2026-04-25 21:09 | 47.58100 | 16.16520 | 13489 ft | 399 kts | 20° |
| 2026-04-25 21:10 | 47.60449 | 16.18779 | 13228 ft | 407 kts | 38° |
| 2026-04-25 21:10 | 47.62350 | 16.21905 | 12493 ft | 410 kts | 51° |
| 2026-04-25 21:10 | 47.63900 | 16.25444 | 11844 ft | 405 kts | 54° |
| 2026-04-25 21:10 | 47.65384 | 16.28872 | 11464 ft | 386 kts | 52° |
| 2026-04-25 21:11 | 47.66911 | 16.32048 | 11085 ft | 370 kts | 49° |
| 2026-04-25 21:11 | 47.67937 | 16.34021 | 10836 ft | 361 kts | 48° |
| 2026-04-25 21:11 | 47.69459 | 16.36892 | 10366 ft | 343 kts | 47° |
| 2026-04-25 21:11 | 47.70898 | 16.39565 | 9951 ft | 319 kts | 47° |
| 2026-04-25 21:12 | 47.72719 | 16.42767 | 9546 ft | 300 kts | 45° |
| 2026-04-25 21:12 | 47.73633 | 16.44331 | 9355 ft | 294 kts | 44° |
| 2026-04-25 21:12 | 47.74985 | 16.46585 | 9143 ft | 293 kts | 43° |
| 2026-04-25 21:12 | 47.75903 | 16.48048 | 8874 ft | 292 kts | 42° |
| 2026-04-25 21:13 | 47.77803 | 16.50931 | 8226 ft | 293 kts | 40° |
| 2026-04-25 21:13 | 47.79258 | 16.53063 | 7663 ft | 295 kts | 40° |
| 2026-04-25 21:13 | 47.80743 | 16.55216 | 7015 ft | 301 kts | 40° |
| 2026-04-25 21:13 | 47.82177 | 16.57539 | 6410 ft | 306 kts | 45° |
| 2026-04-25 21:14 | 47.83554 | 16.59967 | 5884 ft | 307 kts | 48° |
| 2026-04-25 21:14 | 47.84736 | 16.62515 | 5840 ft | 292 kts | 55° |
| 2026-04-25 21:14 | 47.85654 | 16.65152 | 5731 ft | 280 kts | 61° |
| 2026-04-25 21:14 | 47.86407 | 16.67725 | 5783 ft | 263 kts | 63° |
| 2026-04-25 21:15 | 47.87095 | 16.70190 | 5844 ft | 255 kts | 63° |
| 2026-04-25 21:15 | 47.87796 | 16.72620 | 5924 ft | 255 kts | 62° |
| 2026-04-25 21:15 | 47.88512 | 16.75045 | 5986 ft | 256 kts | 61° |
| 2026-04-25 21:15 | 47.89344 | 16.77361 | 5934 ft | 253 kts | 49° |
| 2026-04-25 21:16 | 47.90547 | 16.79243 | 5480 ft | 252 kts | 32° |
| 2026-04-25 21:16 | 47.92016 | 16.80664 | 5004 ft | 253 kts | 25° |
| 2026-04-25 21:16 | 47.93550 | 16.81915 | 4577 ft | 246 kts | 21° |
| 2026-04-25 21:16 | 47.95102 | 16.82764 | 4230 ft | 231 kts | 7° |
| 2026-04-25 21:17 | 47.96656 | 16.82991 | 3843 ft | 217 kts | 355° |
| 2026-04-25 21:17 | 47.98100 | 16.83079 | 3766 ft | 202 kts | 0° |
| 2026-04-25 21:17 | 47.99482 | 16.83261 | 3517 ft | 197 kts | 356° |
| 2026-04-25 21:17 | 48.00805 | 16.83108 | 3182 ft | 191 kts | 345° |
| 2026-04-25 21:18 | 48.02049 | 16.82530 | 2869 ft | 185 kts | 330° |
| 2026-04-25 21:18 | 48.03075 | 16.81426 | 2624 ft | 179 kts | 313° |
| 2026-04-25 21:18 | 48.03832 | 16.79881 | 2512 ft | 190 kts | 294° |
| 2026-04-25 21:18 | 48.04310 | 16.78132 | 2518 ft | 169 kts | 293° |
| 2026-04-25 21:19 | 48.04763 | 16.76600 | 2356 ft | 157 kts | 294° |
| 2026-04-25 21:19 | 48.05196 | 16.75112 | 2247 ft | 154 kts | 293° |
| 2026-04-25 21:19 | 48.05629 | 16.73627 | 2133 ft | 159 kts | 294° |
| 2026-04-25 21:19 | 48.06097 | 16.72121 | 2068 ft | 161 kts | 296° |
| 2026-04-25 21:20 | 48.06610 | 16.70597 | 2008 ft | 161 kts | 297° |
| 2026-04-25 21:20 | 48.06957 | 16.69612 | 1936 ft | 156 kts | 297° |
| 2026-04-25 21:20 | 48.07596 | 16.67736 | 1788 ft | 151 kts | 296° |
| 2026-04-25 21:20 | 48.08053 | 16.66329 | 1683 ft | 149 kts | 296° |
| 2026-04-25 21:21 | 48.08506 | 16.64925 | 1536 ft | 153 kts | 295° |
| 2026-04-25 21:21 | 48.08970 | 16.63477 | 1429 ft | 155 kts | 295° |
| 2026-04-25 21:21 | 48.09442 | 16.62028 | 1271 ft | 154 kts | 296° |
| 2026-04-25 21:21 | 48.09912 | 16.60612 | 1060 ft | 150 kts | 296° |
| 2026-04-25 21:22 | 48.10364 | 16.59205 | 834 ft | 154 kts | 295° |
| 2026-04-25 21:22 | 48.10845 | 16.57741 | 685 ft | 159 kts | 296° |
| 2026-04-25 21:22 | 48.11297 | 16.56356 | 629 ft | 127 kts | 296° |
| 2026-04-25 21:22 | 48.11596 | 16.55437 | 619 ft | 70 kts | 296° |
| 2026-04-25 21:23 | 48.11762 | 16.54929 | 631 ft | 44 kts | 296° |
| 2026-04-25 21:23 | 48.11865 | 16.54692 | 627 ft | 20 kts | 321° |
| 2026-04-25 21:23 | 48.11974 | 16.54578 | 629 ft | 18 kts | 326° |
| 2026-04-25 21:23 | 48.12058 | 16.54548 | 618 ft | 8 kts | 15° |
| 2026-04-25 21:24 | 48.12071 | 16.54559 | 626 ft | 1 kts | 33° |
| 2026-04-25 21:24 | 48.12079 | 16.54581 | 627 ft | 3 kts | 70° |
| 2026-04-25 21:24 | 48.12070 | 16.54634 | 619 ft | 8 kts | 114° |
| 2026-04-25 21:24 | 48.12033 | 16.54743 | 631 ft | 15 kts | 116° |
| 2026-04-25 21:25 | 48.11980 | 16.54906 | 627 ft | 18 kts | 115° |
| 2026-04-25 21:25 | 48.11930 | 16.55069 | 626 ft | 16 kts | 114° |
| 2026-04-25 21:25 | 48.11933 | 16.55179 | 629 ft | 6 kts | 44° |
| 2026-04-25 21:25 | 48.11951 | 16.55182 | 617 ft | 2 kts | 356° |
| 2026-04-25 21:26 | 48.11987 | 16.55179 | 617 ft | 7 kts | 357° |
| 2026-04-25 21:26 | 48.12005 | 16.55163 | 617 ft | 1 kts | 305° |
| 2026-04-25 21:26 | 48.12006 | 16.55125 | 617 ft | 8 kts | 273° |
| 2026-04-25 21:26 | 48.12024 | 16.55019 | 628 ft | 11 kts | 290° |
| 2026-04-25 21:27 | 48.12052 | 16.54924 | 617 ft | 9 kts | 294° |
| 2026-04-25 21:27 | 48.12075 | 16.54847 | 617 ft | 7 kts | 295° |
| 2026-04-25 21:27 | 48.12095 | 16.54783 | 620 ft | 7 kts | 294° |
| 2026-04-25 21:27 | 48.12119 | 16.54728 | 617 ft | 6 kts | 324° |
| 2026-04-25 21:28 | 48.12149 | 16.54725 | 617 ft | 5 kts | 9° |
| 2026-04-25 21:28 | 48.12183 | 16.54743 | 617 ft | 6 kts | 24° |
| 2026-04-25 21:28 | 48.12194 | 16.54752 | 617 ft | 0 kts | 26° |